<?xml version="1.0" encoding="UTF-8" standalone="no" ?>
<gpx xmlns="http://www.topografix.com/GPX/1/1" xmlns:xsi="http://www.w3.org/2001/XMLSchema-instance" xsi:schemaLocation="http://www.topografix.com/GPX/1/1 http://www.topografix.com/GPX/1/1/gpx.xsd" version="1.1" creator="VisuGPX - https://www.visugpx.com">
  <metadata>
    <name>Le Causse de Siran</name>
    <desc><![CDATA[La fin du siècle verra encore les chemins creux bordés de pierres sèches entrelacés comme une couronne unique...qui protègent du vent  et c’est fort possible montrent le chemin où on prend le soleil, d'où on découvre l'infinie des vignes qui s’éclairent déjà cet automne de flammes nouvelles... en altitude au dessus de Mousse nous avons comme des ailes et découvrons le Causse avec Lauriole, Cantaussel et tout un réseau de combes imbibées de ruisseaux qui grossiront le St-Michel à Laval ... la fin de notre belle promenade.
]]></desc>
  </metadata>
  <trk>
    <name><![CDATA[2017-09-25 11:32:08]]></name>
    <trkseg>
      <trkpt lat="43.33243" lon="2.66021">
        <ele>180.32</ele>
        <time>2017-09-25T06:24:45Z</time>
      </trkpt>
      <trkpt lat="43.33241" lon="2.66023">
        <ele>180.27</ele>
        <time>2017-09-25T06:24:48Z</time>
      </trkpt>
      <trkpt lat="43.33251" lon="2.66006">
        <ele>181.06</ele>
        <time>2017-09-25T06:25:02Z</time>
      </trkpt>
      <trkpt lat="43.33259" lon="2.66003">
        <ele>181.54</ele>
        <time>2017-09-25T06:25:20Z</time>
      </trkpt>
      <trkpt lat="43.33264" lon="2.6599">
        <ele>181.67</ele>
        <time>2017-09-25T06:25:30Z</time>
      </trkpt>
      <trkpt lat="43.33264" lon="2.65978">
        <ele>182.54</ele>
        <time>2017-09-25T06:25:46Z</time>
      </trkpt>
      <trkpt lat="43.33267" lon="2.65964">
        <ele>183.18</ele>
        <time>2017-09-25T06:26:02Z</time>
      </trkpt>
      <trkpt lat="43.33271" lon="2.65951">
        <ele>183.56</ele>
        <time>2017-09-25T06:26:13Z</time>
      </trkpt>
      <trkpt lat="43.33279" lon="2.65934">
        <ele>185.39</ele>
        <time>2017-09-25T06:26:30Z</time>
      </trkpt>
      <trkpt lat="43.33284" lon="2.65909">
        <ele>187.15</ele>
        <time>2017-09-25T06:26:48Z</time>
      </trkpt>
      <trkpt lat="43.33277" lon="2.65886">
        <ele>189.31</ele>
        <time>2017-09-25T06:27:07Z</time>
      </trkpt>
      <trkpt lat="43.33275" lon="2.65877">
        <ele>189.54</ele>
        <time>2017-09-25T06:27:18Z</time>
      </trkpt>
      <trkpt lat="43.33277" lon="2.6586">
        <ele>190.19</ele>
        <time>2017-09-25T06:27:32Z</time>
      </trkpt>
      <trkpt lat="43.33277" lon="2.65828">
        <ele>191.2</ele>
        <time>2017-09-25T06:27:53Z</time>
      </trkpt>
      <trkpt lat="43.33273" lon="2.65809">
        <ele>191.73</ele>
        <time>2017-09-25T06:28:08Z</time>
      </trkpt>
      <trkpt lat="43.33263" lon="2.65785">
        <ele>190.14</ele>
        <time>2017-09-25T06:28:30Z</time>
      </trkpt>
      <trkpt lat="43.33254" lon="2.6578">
        <ele>190</ele>
        <time>2017-09-25T06:28:46Z</time>
      </trkpt>
      <trkpt lat="43.33242" lon="2.65774">
        <ele>189.59</ele>
        <time>2017-09-25T06:29:02Z</time>
      </trkpt>
      <trkpt lat="43.33238" lon="2.65771">
        <ele>189.46</ele>
        <time>2017-09-25T06:29:06Z</time>
      </trkpt>
      <trkpt lat="43.33212" lon="2.65758">
        <ele>188.89</ele>
        <time>2017-09-25T06:29:31Z</time>
      </trkpt>
      <trkpt lat="43.332" lon="2.65755">
        <ele>188.54</ele>
        <time>2017-09-25T06:29:43Z</time>
      </trkpt>
      <trkpt lat="43.33184" lon="2.65746">
        <ele>188.46</ele>
        <time>2017-09-25T06:29:59Z</time>
      </trkpt>
      <trkpt lat="43.33172" lon="2.65735">
        <ele>188.27</ele>
        <time>2017-09-25T06:30:14Z</time>
      </trkpt>
      <trkpt lat="43.33159" lon="2.65721">
        <ele>187.92</ele>
        <time>2017-09-25T06:30:31Z</time>
      </trkpt>
      <trkpt lat="43.33146" lon="2.65706">
        <ele>187.46</ele>
        <time>2017-09-25T06:30:49Z</time>
      </trkpt>
      <trkpt lat="43.33133" lon="2.6569">
        <ele>187.18</ele>
        <time>2017-09-25T06:31:08Z</time>
      </trkpt>
      <trkpt lat="43.33119" lon="2.6568">
        <ele>186.14</ele>
        <time>2017-09-25T06:31:25Z</time>
      </trkpt>
      <trkpt lat="43.33105" lon="2.65663">
        <ele>184.9</ele>
        <time>2017-09-25T06:31:48Z</time>
      </trkpt>
      <trkpt lat="43.33089" lon="2.65644">
        <ele>184.35</ele>
        <time>2017-09-25T06:32:08Z</time>
      </trkpt>
      <trkpt lat="43.3307" lon="2.65625">
        <ele>183.1</ele>
        <time>2017-09-25T06:32:32Z</time>
      </trkpt>
      <trkpt lat="43.33049" lon="2.65598">
        <ele>182.05</ele>
        <time>2017-09-25T06:32:56Z</time>
      </trkpt>
      <trkpt lat="43.33041" lon="2.65586">
        <ele>181.78</ele>
        <time>2017-09-25T06:33:07Z</time>
      </trkpt>
      <trkpt lat="43.33029" lon="2.65568">
        <ele>181.09</ele>
        <time>2017-09-25T06:33:26Z</time>
      </trkpt>
      <trkpt lat="43.33022" lon="2.65559">
        <ele>181.03</ele>
        <time>2017-09-25T06:33:37Z</time>
      </trkpt>
      <trkpt lat="43.33007" lon="2.65534">
        <ele>180.57</ele>
        <time>2017-09-25T06:34:02Z</time>
      </trkpt>
      <trkpt lat="43.32991" lon="2.65514">
        <ele>180.07</ele>
        <time>2017-09-25T06:34:24Z</time>
      </trkpt>
      <trkpt lat="43.32978" lon="2.65497">
        <ele>179.48</ele>
        <time>2017-09-25T06:34:39Z</time>
      </trkpt>
      <trkpt lat="43.32965" lon="2.65479">
        <ele>178.63</ele>
        <time>2017-09-25T06:34:58Z</time>
      </trkpt>
      <trkpt lat="43.32962" lon="2.65466">
        <ele>178.71</ele>
        <time>2017-09-25T06:35:15Z</time>
      </trkpt>
      <trkpt lat="43.32979" lon="2.65458">
        <ele>179.26</ele>
        <time>2017-09-25T06:35:40Z</time>
      </trkpt>
      <trkpt lat="43.32998" lon="2.65461">
        <ele>180.09</ele>
        <time>2017-09-25T06:35:58Z</time>
      </trkpt>
      <trkpt lat="43.33016" lon="2.65465">
        <ele>180.63</ele>
        <time>2017-09-25T06:36:15Z</time>
      </trkpt>
      <trkpt lat="43.33038" lon="2.65466">
        <ele>181.63</ele>
        <time>2017-09-25T06:36:35Z</time>
      </trkpt>
      <trkpt lat="43.33054" lon="2.65465">
        <ele>183.65</ele>
        <time>2017-09-25T06:36:56Z</time>
      </trkpt>
      <trkpt lat="43.33062" lon="2.65463">
        <ele>184.33</ele>
        <time>2017-09-25T06:37:07Z</time>
      </trkpt>
      <trkpt lat="43.33068" lon="2.65462">
        <ele>184.85</ele>
        <time>2017-09-25T06:37:13Z</time>
      </trkpt>
      <trkpt lat="43.33081" lon="2.6546">
        <ele>186.47</ele>
        <time>2017-09-25T06:37:26Z</time>
      </trkpt>
      <trkpt lat="43.33095" lon="2.65457">
        <ele>187.49</ele>
        <time>2017-09-25T06:37:41Z</time>
      </trkpt>
      <trkpt lat="43.33104" lon="2.65451">
        <ele>188.17</ele>
        <time>2017-09-25T06:38:00Z</time>
      </trkpt>
      <trkpt lat="43.33113" lon="2.65449">
        <ele>188.34</ele>
        <time>2017-09-25T06:38:16Z</time>
      </trkpt>
      <trkpt lat="43.33125" lon="2.65452">
        <ele>188.73</ele>
        <time>2017-09-25T06:38:34Z</time>
      </trkpt>
      <trkpt lat="43.33134" lon="2.65452">
        <ele>189.55</ele>
        <time>2017-09-25T06:38:51Z</time>
      </trkpt>
      <trkpt lat="43.33145" lon="2.65456">
        <ele>190.71</ele>
        <time>2017-09-25T06:39:12Z</time>
      </trkpt>
      <trkpt lat="43.33162" lon="2.65458">
        <ele>191.29</ele>
        <time>2017-09-25T06:39:33Z</time>
      </trkpt>
      <trkpt lat="43.33176" lon="2.65465">
        <ele>191.54</ele>
        <time>2017-09-25T06:39:56Z</time>
      </trkpt>
      <trkpt lat="43.33191" lon="2.65473">
        <ele>192.16</ele>
        <time>2017-09-25T06:40:16Z</time>
      </trkpt>
      <trkpt lat="43.33208" lon="2.65489">
        <ele>193.96</ele>
        <time>2017-09-25T06:40:38Z</time>
      </trkpt>
      <trkpt lat="43.33224" lon="2.65504">
        <ele>195.74</ele>
        <time>2017-09-25T06:40:57Z</time>
      </trkpt>
      <trkpt lat="43.33239" lon="2.65507">
        <ele>196.82</ele>
        <time>2017-09-25T06:41:15Z</time>
      </trkpt>
      <trkpt lat="43.33251" lon="2.6551">
        <ele>198.12</ele>
        <time>2017-09-25T06:41:27Z</time>
      </trkpt>
      <trkpt lat="43.33267" lon="2.65515">
        <ele>200.53</ele>
        <time>2017-09-25T06:41:47Z</time>
      </trkpt>
      <trkpt lat="43.33285" lon="2.65521">
        <ele>202.84</ele>
        <time>2017-09-25T06:42:10Z</time>
      </trkpt>
      <trkpt lat="43.33304" lon="2.65523">
        <ele>205.37</ele>
        <time>2017-09-25T06:42:36Z</time>
      </trkpt>
      <trkpt lat="43.33318" lon="2.65518">
        <ele>207.4</ele>
        <time>2017-09-25T06:43:00Z</time>
      </trkpt>
      <trkpt lat="43.33331" lon="2.65515">
        <ele>209.48</ele>
        <time>2017-09-25T06:43:25Z</time>
      </trkpt>
      <trkpt lat="43.33336" lon="2.65514">
        <ele>209.97</ele>
        <time>2017-09-25T06:43:48Z</time>
      </trkpt>
      <trkpt lat="43.33345" lon="2.65511">
        <ele>210.76</ele>
        <time>2017-09-25T06:44:09Z</time>
      </trkpt>
      <trkpt lat="43.33358" lon="2.65507">
        <ele>212.5</ele>
        <time>2017-09-25T06:44:34Z</time>
      </trkpt>
      <trkpt lat="43.33371" lon="2.65504">
        <ele>213.71</ele>
        <time>2017-09-25T06:44:54Z</time>
      </trkpt>
      <trkpt lat="43.33389" lon="2.65499">
        <ele>215.96</ele>
        <time>2017-09-25T06:45:24Z</time>
      </trkpt>
      <trkpt lat="43.33407" lon="2.65498">
        <ele>218.47</ele>
        <time>2017-09-25T06:45:46Z</time>
      </trkpt>
      <trkpt lat="43.33425" lon="2.65504">
        <ele>220.26</ele>
        <time>2017-09-25T06:46:07Z</time>
      </trkpt>
      <trkpt lat="43.33438" lon="2.65516">
        <ele>221.65</ele>
        <time>2017-09-25T06:46:28Z</time>
      </trkpt>
      <trkpt lat="43.33445" lon="2.65508">
        <ele>223.36</ele>
        <time>2017-09-25T06:46:49Z</time>
      </trkpt>
      <trkpt lat="43.33447" lon="2.65505">
        <ele>223.97</ele>
        <time>2017-09-25T06:47:15Z</time>
      </trkpt>
      <trkpt lat="43.33446" lon="2.65498">
        <ele>224.14</ele>
        <time>2017-09-25T06:47:58Z</time>
      </trkpt>
      <trkpt lat="43.33447" lon="2.65501">
        <ele>223.56</ele>
        <time>2017-09-25T06:48:51Z</time>
      </trkpt>
      <trkpt lat="43.33447" lon="2.65504">
        <ele>223.81</ele>
        <time>2017-09-25T06:49:36Z</time>
      </trkpt>
      <trkpt lat="43.33448" lon="2.65506">
        <ele>223.94</ele>
        <time>2017-09-25T06:50:34Z</time>
      </trkpt>
      <trkpt lat="43.33449" lon="2.65499">
        <ele>223.96</ele>
        <time>2017-09-25T06:51:14Z</time>
      </trkpt>
      <trkpt lat="43.33448" lon="2.65497">
        <ele>224.94</ele>
        <time>2017-09-25T06:51:42Z</time>
      </trkpt>
      <trkpt lat="43.33447" lon="2.65492">
        <ele>225</ele>
        <time>2017-09-25T06:52:16Z</time>
      </trkpt>
      <trkpt lat="43.33452" lon="2.65484">
        <ele>225.59</ele>
        <time>2017-09-25T06:52:47Z</time>
      </trkpt>
      <trkpt lat="43.33461" lon="2.65469">
        <ele>226.77</ele>
        <time>2017-09-25T06:53:09Z</time>
      </trkpt>
      <trkpt lat="43.33468" lon="2.6545">
        <ele>228.28</ele>
        <time>2017-09-25T06:53:30Z</time>
      </trkpt>
      <trkpt lat="43.33478" lon="2.65426">
        <ele>230.32</ele>
        <time>2017-09-25T06:53:50Z</time>
      </trkpt>
      <trkpt lat="43.33484" lon="2.65405">
        <ele>231.69</ele>
        <time>2017-09-25T06:54:09Z</time>
      </trkpt>
      <trkpt lat="43.3349" lon="2.6538">
        <ele>233.41</ele>
        <time>2017-09-25T06:54:32Z</time>
      </trkpt>
      <trkpt lat="43.33491" lon="2.65356">
        <ele>234.66</ele>
        <time>2017-09-25T06:54:54Z</time>
      </trkpt>
      <trkpt lat="43.33493" lon="2.65328">
        <ele>234.88</ele>
        <time>2017-09-25T06:55:17Z</time>
      </trkpt>
      <trkpt lat="43.33501" lon="2.65313">
        <ele>235.47</ele>
        <time>2017-09-25T06:55:35Z</time>
      </trkpt>
      <trkpt lat="43.33504" lon="2.65312">
        <ele>235.83</ele>
        <time>2017-09-25T06:55:44Z</time>
      </trkpt>
      <trkpt lat="43.33513" lon="2.65302">
        <ele>235.8</ele>
        <time>2017-09-25T06:56:05Z</time>
      </trkpt>
      <trkpt lat="43.33527" lon="2.65295">
        <ele>237.44</ele>
        <time>2017-09-25T06:56:25Z</time>
      </trkpt>
      <trkpt lat="43.33541" lon="2.65291">
        <ele>238.93</ele>
        <time>2017-09-25T06:56:49Z</time>
      </trkpt>
      <trkpt lat="43.33552" lon="2.65276">
        <ele>241.32</ele>
        <time>2017-09-25T06:57:10Z</time>
      </trkpt>
      <trkpt lat="43.33561" lon="2.65259">
        <ele>243.4</ele>
        <time>2017-09-25T06:57:32Z</time>
      </trkpt>
      <trkpt lat="43.33569" lon="2.65238">
        <ele>245.35</ele>
        <time>2017-09-25T06:57:51Z</time>
      </trkpt>
      <trkpt lat="43.33573" lon="2.65216">
        <ele>247.17</ele>
        <time>2017-09-25T06:58:11Z</time>
      </trkpt>
      <trkpt lat="43.33575" lon="2.65187">
        <ele>249.3</ele>
        <time>2017-09-25T06:58:33Z</time>
      </trkpt>
      <trkpt lat="43.33583" lon="2.65169">
        <ele>252.19</ele>
        <time>2017-09-25T06:58:55Z</time>
      </trkpt>
      <trkpt lat="43.33588" lon="2.65149">
        <ele>253.75</ele>
        <time>2017-09-25T06:59:15Z</time>
      </trkpt>
      <trkpt lat="43.3359" lon="2.65138">
        <ele>254.14</ele>
        <time>2017-09-25T06:59:22Z</time>
      </trkpt>
      <trkpt lat="43.33593" lon="2.65118">
        <ele>255.28</ele>
        <time>2017-09-25T06:59:43Z</time>
      </trkpt>
      <trkpt lat="43.33596" lon="2.65101">
        <ele>256.19</ele>
        <time>2017-09-25T07:00:05Z</time>
      </trkpt>
      <trkpt lat="43.33602" lon="2.65092">
        <ele>257.06</ele>
        <time>2017-09-25T07:00:26Z</time>
      </trkpt>
      <trkpt lat="43.33603" lon="2.65075">
        <ele>257.1</ele>
        <time>2017-09-25T07:00:50Z</time>
      </trkpt>
      <trkpt lat="43.33608" lon="2.65049">
        <ele>258.27</ele>
        <time>2017-09-25T07:01:16Z</time>
      </trkpt>
      <trkpt lat="43.33612" lon="2.65025">
        <ele>259.84</ele>
        <time>2017-09-25T07:01:39Z</time>
      </trkpt>
      <trkpt lat="43.33615" lon="2.64993">
        <ele>261.08</ele>
        <time>2017-09-25T07:02:01Z</time>
      </trkpt>
      <trkpt lat="43.33619" lon="2.64969">
        <ele>262.2</ele>
        <time>2017-09-25T07:02:23Z</time>
      </trkpt>
      <trkpt lat="43.33621" lon="2.64935">
        <ele>263.96</ele>
        <time>2017-09-25T07:02:48Z</time>
      </trkpt>
      <trkpt lat="43.33625" lon="2.64926">
        <ele>264.38</ele>
        <time>2017-09-25T07:03:12Z</time>
      </trkpt>
      <trkpt lat="43.33624" lon="2.64918">
        <ele>263.8</ele>
        <time>2017-09-25T07:03:42Z</time>
      </trkpt>
      <trkpt lat="43.33621" lon="2.64914">
        <ele>263.36</ele>
        <time>2017-09-25T07:04:20Z</time>
      </trkpt>
      <trkpt lat="43.33623" lon="2.64908">
        <ele>264.09</ele>
        <time>2017-09-25T07:04:46Z</time>
      </trkpt>
      <trkpt lat="43.33627" lon="2.64921">
        <ele>265.17</ele>
        <time>2017-09-25T07:05:03Z</time>
      </trkpt>
      <trkpt lat="43.33627" lon="2.64945">
        <ele>264.79</ele>
        <time>2017-09-25T07:05:22Z</time>
      </trkpt>
      <trkpt lat="43.33627" lon="2.64951">
        <ele>264.58</ele>
        <time>2017-09-25T07:05:27Z</time>
      </trkpt>
      <trkpt lat="43.33627" lon="2.64973">
        <ele>262.96</ele>
        <time>2017-09-25T07:05:42Z</time>
      </trkpt>
      <trkpt lat="43.33625" lon="2.64996">
        <ele>262.64</ele>
        <time>2017-09-25T07:06:01Z</time>
      </trkpt>
      <trkpt lat="43.33626" lon="2.65021">
        <ele>261.75</ele>
        <time>2017-09-25T07:06:21Z</time>
      </trkpt>
      <trkpt lat="43.33629" lon="2.65053">
        <ele>262</ele>
        <time>2017-09-25T07:06:47Z</time>
      </trkpt>
      <trkpt lat="43.33632" lon="2.65087">
        <ele>263.33</ele>
        <time>2017-09-25T07:07:14Z</time>
      </trkpt>
      <trkpt lat="43.33633" lon="2.65118">
        <ele>264.03</ele>
        <time>2017-09-25T07:07:34Z</time>
      </trkpt>
      <trkpt lat="43.33633" lon="2.65139">
        <ele>265.56</ele>
        <time>2017-09-25T07:07:53Z</time>
      </trkpt>
      <trkpt lat="43.33644" lon="2.65148">
        <ele>267.4</ele>
        <time>2017-09-25T07:08:13Z</time>
      </trkpt>
      <trkpt lat="43.33656" lon="2.6515">
        <ele>269.27</ele>
        <time>2017-09-25T07:08:36Z</time>
      </trkpt>
      <trkpt lat="43.33669" lon="2.65151">
        <ele>271.92</ele>
        <time>2017-09-25T07:08:57Z</time>
      </trkpt>
      <trkpt lat="43.3367" lon="2.65152">
        <ele>272.28</ele>
        <time>2017-09-25T07:09:29Z</time>
      </trkpt>
      <trkpt lat="43.33671" lon="2.65151">
        <ele>272.03</ele>
        <time>2017-09-25T07:09:58Z</time>
      </trkpt>
      <trkpt lat="43.33681" lon="2.6514">
        <ele>270.96</ele>
        <time>2017-09-25T07:10:21Z</time>
      </trkpt>
      <trkpt lat="43.33692" lon="2.65123">
        <ele>269.32</ele>
        <time>2017-09-25T07:10:44Z</time>
      </trkpt>
      <trkpt lat="43.337" lon="2.65111">
        <ele>268.01</ele>
        <time>2017-09-25T07:11:10Z</time>
      </trkpt>
      <trkpt lat="43.33713" lon="2.65092">
        <ele>267.43</ele>
        <time>2017-09-25T07:11:31Z</time>
      </trkpt>
      <trkpt lat="43.33733" lon="2.65076">
        <ele>266.1</ele>
        <time>2017-09-25T07:11:52Z</time>
      </trkpt>
      <trkpt lat="43.33751" lon="2.65058">
        <ele>263.95</ele>
        <time>2017-09-25T07:12:14Z</time>
      </trkpt>
      <trkpt lat="43.3376" lon="2.65038">
        <ele>262.5</ele>
        <time>2017-09-25T07:12:33Z</time>
      </trkpt>
      <trkpt lat="43.33769" lon="2.65022">
        <ele>260.48</ele>
        <time>2017-09-25T07:12:50Z</time>
      </trkpt>
      <trkpt lat="43.33782" lon="2.65006">
        <ele>258.01</ele>
        <time>2017-09-25T07:13:13Z</time>
      </trkpt>
      <trkpt lat="43.33803" lon="2.64994">
        <ele>255.72</ele>
        <time>2017-09-25T07:13:35Z</time>
      </trkpt>
      <trkpt lat="43.33819" lon="2.64983">
        <ele>253.42</ele>
        <time>2017-09-25T07:13:57Z</time>
      </trkpt>
      <trkpt lat="43.33836" lon="2.64969">
        <ele>251.63</ele>
        <time>2017-09-25T07:14:19Z</time>
      </trkpt>
      <trkpt lat="43.33854" lon="2.64956">
        <ele>250.13</ele>
        <time>2017-09-25T07:14:41Z</time>
      </trkpt>
      <trkpt lat="43.3388" lon="2.64944">
        <ele>248.16</ele>
        <time>2017-09-25T07:15:11Z</time>
      </trkpt>
      <trkpt lat="43.33905" lon="2.64935">
        <ele>247.09</ele>
        <time>2017-09-25T07:15:30Z</time>
      </trkpt>
      <trkpt lat="43.3393" lon="2.64927">
        <ele>248.7</ele>
        <time>2017-09-25T07:15:50Z</time>
      </trkpt>
      <trkpt lat="43.33937" lon="2.64903">
        <ele>250.89</ele>
        <time>2017-09-25T07:16:10Z</time>
      </trkpt>
      <trkpt lat="43.33949" lon="2.6488">
        <ele>251.9</ele>
        <time>2017-09-25T07:16:29Z</time>
      </trkpt>
      <trkpt lat="43.33958" lon="2.64861">
        <ele>252.69</ele>
        <time>2017-09-25T07:16:44Z</time>
      </trkpt>
      <trkpt lat="43.33965" lon="2.64847">
        <ele>254.59</ele>
        <time>2017-09-25T07:17:04Z</time>
      </trkpt>
      <trkpt lat="43.33974" lon="2.64851">
        <ele>254.32</ele>
        <time>2017-09-25T07:17:24Z</time>
      </trkpt>
      <trkpt lat="43.33973" lon="2.64867">
        <ele>252.6</ele>
        <time>2017-09-25T07:17:42Z</time>
      </trkpt>
      <trkpt lat="43.33971" lon="2.64884">
        <ele>249.83</ele>
        <time>2017-09-25T07:18:03Z</time>
      </trkpt>
      <trkpt lat="43.33976" lon="2.64899">
        <ele>248.08</ele>
        <time>2017-09-25T07:18:18Z</time>
      </trkpt>
      <trkpt lat="43.33985" lon="2.64913">
        <ele>245.91</ele>
        <time>2017-09-25T07:18:36Z</time>
      </trkpt>
      <trkpt lat="43.33996" lon="2.64926">
        <ele>243.45</ele>
        <time>2017-09-25T07:18:57Z</time>
      </trkpt>
      <trkpt lat="43.34008" lon="2.64942">
        <ele>241.6</ele>
        <time>2017-09-25T07:19:16Z</time>
      </trkpt>
      <trkpt lat="43.34012" lon="2.64947">
        <ele>241.36</ele>
        <time>2017-09-25T07:19:21Z</time>
      </trkpt>
      <trkpt lat="43.34025" lon="2.64964">
        <ele>239.86</ele>
        <time>2017-09-25T07:19:40Z</time>
      </trkpt>
      <trkpt lat="43.34036" lon="2.64979">
        <ele>239.06</ele>
        <time>2017-09-25T07:19:56Z</time>
      </trkpt>
      <trkpt lat="43.34052" lon="2.6499">
        <ele>238.48</ele>
        <time>2017-09-25T07:20:16Z</time>
      </trkpt>
      <trkpt lat="43.34062" lon="2.64993">
        <ele>238.19</ele>
        <time>2017-09-25T07:20:33Z</time>
      </trkpt>
      <trkpt lat="43.34068" lon="2.65003">
        <ele>238.76</ele>
        <time>2017-09-25T07:20:54Z</time>
      </trkpt>
      <trkpt lat="43.34066" lon="2.65013">
        <ele>238.2</ele>
        <time>2017-09-25T07:21:07Z</time>
      </trkpt>
      <trkpt lat="43.34064" lon="2.65019">
        <ele>238.15</ele>
        <time>2017-09-25T07:21:12Z</time>
      </trkpt>
      <trkpt lat="43.34056" lon="2.65049">
        <ele>237.37</ele>
        <time>2017-09-25T07:21:35Z</time>
      </trkpt>
      <trkpt lat="43.34051" lon="2.65069">
        <ele>236.56</ele>
        <time>2017-09-25T07:21:52Z</time>
      </trkpt>
      <trkpt lat="43.34064" lon="2.65082">
        <ele>234.47</ele>
        <time>2017-09-25T07:22:08Z</time>
      </trkpt>
      <trkpt lat="43.34068" lon="2.65105">
        <ele>234.34</ele>
        <time>2017-09-25T07:22:27Z</time>
      </trkpt>
      <trkpt lat="43.34069" lon="2.65134">
        <ele>235.24</ele>
        <time>2017-09-25T07:22:47Z</time>
      </trkpt>
      <trkpt lat="43.34064" lon="2.65159">
        <ele>235.89</ele>
        <time>2017-09-25T07:23:04Z</time>
      </trkpt>
      <trkpt lat="43.3405" lon="2.65179">
        <ele>236.4</ele>
        <time>2017-09-25T07:23:23Z</time>
      </trkpt>
      <trkpt lat="43.34037" lon="2.65202">
        <ele>236.75</ele>
        <time>2017-09-25T07:23:42Z</time>
      </trkpt>
      <trkpt lat="43.34033" lon="2.65222">
        <ele>236.91</ele>
        <time>2017-09-25T07:23:58Z</time>
      </trkpt>
      <trkpt lat="43.34043" lon="2.65232">
        <ele>237.69</ele>
        <time>2017-09-25T07:24:13Z</time>
      </trkpt>
      <trkpt lat="43.34055" lon="2.65222">
        <ele>239.31</ele>
        <time>2017-09-25T07:24:30Z</time>
      </trkpt>
      <trkpt lat="43.34057" lon="2.65219">
        <ele>239.53</ele>
        <time>2017-09-25T07:24:33Z</time>
      </trkpt>
      <trkpt lat="43.3407" lon="2.65207">
        <ele>240.28</ele>
        <time>2017-09-25T07:24:49Z</time>
      </trkpt>
      <trkpt lat="43.34083" lon="2.65198">
        <ele>241.19</ele>
        <time>2017-09-25T07:25:03Z</time>
      </trkpt>
      <trkpt lat="43.34098" lon="2.65191">
        <ele>242.39</ele>
        <time>2017-09-25T07:25:19Z</time>
      </trkpt>
      <trkpt lat="43.34111" lon="2.65189">
        <ele>243.47</ele>
        <time>2017-09-25T07:25:34Z</time>
      </trkpt>
      <trkpt lat="43.34119" lon="2.65189">
        <ele>243.86</ele>
        <time>2017-09-25T07:25:52Z</time>
      </trkpt>
      <trkpt lat="43.34121" lon="2.6519">
        <ele>244.25</ele>
        <time>2017-09-25T07:26:13Z</time>
      </trkpt>
      <trkpt lat="43.34128" lon="2.65187">
        <ele>245.27</ele>
        <time>2017-09-25T07:26:37Z</time>
      </trkpt>
      <trkpt lat="43.34141" lon="2.65174">
        <ele>246.97</ele>
        <time>2017-09-25T07:26:55Z</time>
      </trkpt>
      <trkpt lat="43.34154" lon="2.65158">
        <ele>248.39</ele>
        <time>2017-09-25T07:27:14Z</time>
      </trkpt>
      <trkpt lat="43.34168" lon="2.65144">
        <ele>249.4</ele>
        <time>2017-09-25T07:27:33Z</time>
      </trkpt>
      <trkpt lat="43.34177" lon="2.65126">
        <ele>250.39</ele>
        <time>2017-09-25T07:27:50Z</time>
      </trkpt>
      <trkpt lat="43.3419" lon="2.65105">
        <ele>252.6</ele>
        <time>2017-09-25T07:28:10Z</time>
      </trkpt>
      <trkpt lat="43.34204" lon="2.65093">
        <ele>254.54</ele>
        <time>2017-09-25T07:28:27Z</time>
      </trkpt>
      <trkpt lat="43.34218" lon="2.65081">
        <ele>256.23</ele>
        <time>2017-09-25T07:28:45Z</time>
      </trkpt>
      <trkpt lat="43.3423" lon="2.65071">
        <ele>257.14</ele>
        <time>2017-09-25T07:29:02Z</time>
      </trkpt>
      <trkpt lat="43.34245" lon="2.65059">
        <ele>259.44</ele>
        <time>2017-09-25T07:29:22Z</time>
      </trkpt>
      <trkpt lat="43.34258" lon="2.65051">
        <ele>260.75</ele>
        <time>2017-09-25T07:29:37Z</time>
      </trkpt>
      <trkpt lat="43.34273" lon="2.65047">
        <ele>262.1</ele>
        <time>2017-09-25T07:29:53Z</time>
      </trkpt>
      <trkpt lat="43.34287" lon="2.65055">
        <ele>263.53</ele>
        <time>2017-09-25T07:30:12Z</time>
      </trkpt>
      <trkpt lat="43.34289" lon="2.65058">
        <ele>264.27</ele>
        <time>2017-09-25T07:30:28Z</time>
      </trkpt>
      <trkpt lat="43.34291" lon="2.6507">
        <ele>264.81</ele>
        <time>2017-09-25T07:30:47Z</time>
      </trkpt>
      <trkpt lat="43.34297" lon="2.65092">
        <ele>265.92</ele>
        <time>2017-09-25T07:31:07Z</time>
      </trkpt>
      <trkpt lat="43.34306" lon="2.65109">
        <ele>267.68</ele>
        <time>2017-09-25T07:31:25Z</time>
      </trkpt>
      <trkpt lat="43.34312" lon="2.65117">
        <ele>268.15</ele>
        <time>2017-09-25T07:31:35Z</time>
      </trkpt>
      <trkpt lat="43.34326" lon="2.65132">
        <ele>270</ele>
        <time>2017-09-25T07:31:54Z</time>
      </trkpt>
      <trkpt lat="43.34341" lon="2.65145">
        <ele>271.61</ele>
        <time>2017-09-25T07:32:13Z</time>
      </trkpt>
      <trkpt lat="43.34354" lon="2.65157">
        <ele>272.88</ele>
        <time>2017-09-25T07:32:30Z</time>
      </trkpt>
      <trkpt lat="43.34368" lon="2.65171">
        <ele>274.19</ele>
        <time>2017-09-25T07:32:48Z</time>
      </trkpt>
      <trkpt lat="43.34378" lon="2.65185">
        <ele>274.88</ele>
        <time>2017-09-25T07:33:03Z</time>
      </trkpt>
      <trkpt lat="43.34387" lon="2.65201">
        <ele>276.01</ele>
        <time>2017-09-25T07:33:18Z</time>
      </trkpt>
      <trkpt lat="43.34394" lon="2.65214">
        <ele>277.19</ele>
        <time>2017-09-25T07:33:31Z</time>
      </trkpt>
      <trkpt lat="43.34405" lon="2.65234">
        <ele>278.53</ele>
        <time>2017-09-25T07:33:49Z</time>
      </trkpt>
      <trkpt lat="43.34414" lon="2.65253">
        <ele>279.94</ele>
        <time>2017-09-25T07:34:05Z</time>
      </trkpt>
      <trkpt lat="43.34423" lon="2.6527">
        <ele>280.83</ele>
        <time>2017-09-25T07:34:20Z</time>
      </trkpt>
      <trkpt lat="43.34427" lon="2.65281">
        <ele>281.65</ele>
        <time>2017-09-25T07:34:29Z</time>
      </trkpt>
      <trkpt lat="43.34435" lon="2.65297">
        <ele>282.61</ele>
        <time>2017-09-25T07:34:43Z</time>
      </trkpt>
      <trkpt lat="43.34444" lon="2.65313">
        <ele>283.47</ele>
        <time>2017-09-25T07:34:59Z</time>
      </trkpt>
      <trkpt lat="43.3445" lon="2.65321">
        <ele>284.23</ele>
        <time>2017-09-25T07:35:08Z</time>
      </trkpt>
      <trkpt lat="43.34467" lon="2.65327">
        <ele>285.64</ele>
        <time>2017-09-25T07:35:27Z</time>
      </trkpt>
      <trkpt lat="43.34484" lon="2.65326">
        <ele>286.93</ele>
        <time>2017-09-25T07:35:43Z</time>
      </trkpt>
      <trkpt lat="43.34496" lon="2.65332">
        <ele>288.35</ele>
        <time>2017-09-25T07:35:58Z</time>
      </trkpt>
      <trkpt lat="43.34497" lon="2.65333">
        <ele>288.41</ele>
        <time>2017-09-25T07:35:59Z</time>
      </trkpt>
      <trkpt lat="43.34505" lon="2.65353">
        <ele>289.19</ele>
        <time>2017-09-25T07:36:16Z</time>
      </trkpt>
      <trkpt lat="43.3451" lon="2.65363">
        <ele>289.86</ele>
        <time>2017-09-25T07:36:25Z</time>
      </trkpt>
      <trkpt lat="43.34525" lon="2.6538">
        <ele>291.33</ele>
        <time>2017-09-25T07:36:43Z</time>
      </trkpt>
      <trkpt lat="43.34537" lon="2.65399">
        <ele>292.09</ele>
        <time>2017-09-25T07:37:01Z</time>
      </trkpt>
      <trkpt lat="43.34544" lon="2.65418">
        <ele>293.56</ele>
        <time>2017-09-25T07:37:17Z</time>
      </trkpt>
      <trkpt lat="43.34549" lon="2.65433">
        <ele>294.68</ele>
        <time>2017-09-25T07:37:35Z</time>
      </trkpt>
      <trkpt lat="43.3455" lon="2.65435">
        <ele>294.88</ele>
        <time>2017-09-25T07:37:56Z</time>
      </trkpt>
      <trkpt lat="43.3455" lon="2.65434">
        <ele>294.62</ele>
        <time>2017-09-25T07:38:19Z</time>
      </trkpt>
      <trkpt lat="43.3455" lon="2.65435">
        <ele>294.83</ele>
        <time>2017-09-25T07:39:12Z</time>
      </trkpt>
      <trkpt lat="43.34551" lon="2.65436">
        <ele>295.32</ele>
        <time>2017-09-25T07:39:42Z</time>
      </trkpt>
      <trkpt lat="43.34549" lon="2.65436">
        <ele>295.46</ele>
        <time>2017-09-25T07:40:15Z</time>
      </trkpt>
      <trkpt lat="43.34548" lon="2.65436">
        <ele>295.97</ele>
        <time>2017-09-25T07:40:59Z</time>
      </trkpt>
      <trkpt lat="43.34547" lon="2.65435">
        <ele>296.18</ele>
        <time>2017-09-25T07:41:48Z</time>
      </trkpt>
      <trkpt lat="43.34549" lon="2.65435">
        <ele>296.16</ele>
        <time>2017-09-25T07:42:28Z</time>
      </trkpt>
      <trkpt lat="43.3455" lon="2.65435">
        <ele>296.67</ele>
        <time>2017-09-25T07:42:48Z</time>
      </trkpt>
      <trkpt lat="43.3455" lon="2.65434">
        <ele>296.82</ele>
        <time>2017-09-25T07:43:30Z</time>
      </trkpt>
      <trkpt lat="43.34549" lon="2.65434">
        <ele>296.78</ele>
        <time>2017-09-25T07:44:12Z</time>
      </trkpt>
      <trkpt lat="43.34551" lon="2.65435">
        <ele>297.12</ele>
        <time>2017-09-25T07:45:00Z</time>
      </trkpt>
      <trkpt lat="43.3455" lon="2.65435">
        <ele>297.12</ele>
        <time>2017-09-25T07:45:25Z</time>
      </trkpt>
      <trkpt lat="43.34548" lon="2.65435">
        <ele>296.87</ele>
        <time>2017-09-25T07:45:59Z</time>
      </trkpt>
      <trkpt lat="43.34549" lon="2.65435">
        <ele>297.66</ele>
        <time>2017-09-25T07:46:25Z</time>
      </trkpt>
      <trkpt lat="43.34551" lon="2.65434">
        <ele>297.02</ele>
        <time>2017-09-25T07:47:04Z</time>
      </trkpt>
      <trkpt lat="43.34551" lon="2.65438">
        <ele>297.49</ele>
        <time>2017-09-25T07:47:29Z</time>
      </trkpt>
      <trkpt lat="43.34557" lon="2.65451">
        <ele>298.1</ele>
        <time>2017-09-25T07:47:48Z</time>
      </trkpt>
      <trkpt lat="43.34557" lon="2.65456">
        <ele>298.36</ele>
        <time>2017-09-25T07:47:54Z</time>
      </trkpt>
      <trkpt lat="43.3455" lon="2.65462">
        <ele>297.95</ele>
        <time>2017-09-25T07:48:07Z</time>
      </trkpt>
      <trkpt lat="43.34549" lon="2.65464">
        <ele>297.88</ele>
        <time>2017-09-25T07:48:28Z</time>
      </trkpt>
      <trkpt lat="43.34548" lon="2.65469">
        <ele>298.35</ele>
        <time>2017-09-25T07:48:45Z</time>
      </trkpt>
      <trkpt lat="43.34547" lon="2.65473">
        <ele>298.58</ele>
        <time>2017-09-25T07:49:07Z</time>
      </trkpt>
      <trkpt lat="43.34546" lon="2.65476">
        <ele>299.06</ele>
        <time>2017-09-25T07:49:25Z</time>
      </trkpt>
      <trkpt lat="43.34548" lon="2.6548">
        <ele>299.12</ele>
        <time>2017-09-25T07:49:43Z</time>
      </trkpt>
      <trkpt lat="43.34548" lon="2.65475">
        <ele>299.1</ele>
        <time>2017-09-25T07:49:56Z</time>
      </trkpt>
      <trkpt lat="43.34547" lon="2.65475">
        <ele>299.57</ele>
        <time>2017-09-25T07:50:35Z</time>
      </trkpt>
      <trkpt lat="43.34549" lon="2.65474">
        <ele>299.75</ele>
        <time>2017-09-25T07:50:41Z</time>
      </trkpt>
      <trkpt lat="43.34547" lon="2.65471">
        <ele>299.23</ele>
        <time>2017-09-25T07:51:02Z</time>
      </trkpt>
      <trkpt lat="43.3455" lon="2.6548">
        <ele>300.28</ele>
        <time>2017-09-25T07:51:22Z</time>
      </trkpt>
      <trkpt lat="43.34556" lon="2.65482">
        <ele>300.98</ele>
        <time>2017-09-25T07:51:34Z</time>
      </trkpt>
      <trkpt lat="43.3456" lon="2.6548">
        <ele>301.32</ele>
        <time>2017-09-25T07:51:39Z</time>
      </trkpt>
      <trkpt lat="43.34568" lon="2.65483">
        <ele>302.06</ele>
        <time>2017-09-25T07:51:47Z</time>
      </trkpt>
      <trkpt lat="43.34581" lon="2.65508">
        <ele>303.31</ele>
        <time>2017-09-25T07:52:05Z</time>
      </trkpt>
      <trkpt lat="43.34591" lon="2.65543">
        <ele>304.73</ele>
        <time>2017-09-25T07:52:27Z</time>
      </trkpt>
      <trkpt lat="43.34609" lon="2.65563">
        <ele>306.21</ele>
        <time>2017-09-25T07:52:45Z</time>
      </trkpt>
      <trkpt lat="43.34633" lon="2.65573">
        <ele>307.54</ele>
        <time>2017-09-25T07:53:03Z</time>
      </trkpt>
      <trkpt lat="43.34654" lon="2.65582">
        <ele>308.71</ele>
        <time>2017-09-25T07:53:19Z</time>
      </trkpt>
      <trkpt lat="43.34673" lon="2.65591">
        <ele>310.16</ele>
        <time>2017-09-25T07:53:34Z</time>
      </trkpt>
      <trkpt lat="43.34692" lon="2.65602">
        <ele>311.29</ele>
        <time>2017-09-25T07:53:49Z</time>
      </trkpt>
      <trkpt lat="43.34714" lon="2.65616">
        <ele>313.66</ele>
        <time>2017-09-25T07:54:07Z</time>
      </trkpt>
      <trkpt lat="43.34734" lon="2.65619">
        <ele>314.46</ele>
        <time>2017-09-25T07:54:22Z</time>
      </trkpt>
      <trkpt lat="43.34751" lon="2.65617">
        <ele>315</ele>
        <time>2017-09-25T07:54:38Z</time>
      </trkpt>
      <trkpt lat="43.34771" lon="2.65618">
        <ele>315.03</ele>
        <time>2017-09-25T07:54:53Z</time>
      </trkpt>
      <trkpt lat="43.34789" lon="2.65606">
        <ele>314.16</ele>
        <time>2017-09-25T07:55:11Z</time>
      </trkpt>
      <trkpt lat="43.34799" lon="2.65616">
        <ele>314.66</ele>
        <time>2017-09-25T07:55:25Z</time>
      </trkpt>
      <trkpt lat="43.34785" lon="2.65638">
        <ele>316.16</ele>
        <time>2017-09-25T07:55:42Z</time>
      </trkpt>
      <trkpt lat="43.34768" lon="2.65659">
        <ele>318.62</ele>
        <time>2017-09-25T07:56:00Z</time>
      </trkpt>
      <trkpt lat="43.34765" lon="2.65676">
        <ele>320</ele>
        <time>2017-09-25T07:56:11Z</time>
      </trkpt>
      <trkpt lat="43.34776" lon="2.65704">
        <ele>321.48</ele>
        <time>2017-09-25T07:56:31Z</time>
      </trkpt>
      <trkpt lat="43.34789" lon="2.65727">
        <ele>323.34</ele>
        <time>2017-09-25T07:56:50Z</time>
      </trkpt>
      <trkpt lat="43.34802" lon="2.65747">
        <ele>325.11</ele>
        <time>2017-09-25T07:57:06Z</time>
      </trkpt>
      <trkpt lat="43.3481" lon="2.65771">
        <ele>326.22</ele>
        <time>2017-09-25T07:57:22Z</time>
      </trkpt>
      <trkpt lat="43.34812" lon="2.65802">
        <ele>328.31</ele>
        <time>2017-09-25T07:57:41Z</time>
      </trkpt>
      <trkpt lat="43.34827" lon="2.65828">
        <ele>330.09</ele>
        <time>2017-09-25T07:58:01Z</time>
      </trkpt>
      <trkpt lat="43.34846" lon="2.65847">
        <ele>331.91</ele>
        <time>2017-09-25T07:58:22Z</time>
      </trkpt>
      <trkpt lat="43.34865" lon="2.65863">
        <ele>333.11</ele>
        <time>2017-09-25T07:58:41Z</time>
      </trkpt>
      <trkpt lat="43.34875" lon="2.65882">
        <ele>334.65</ele>
        <time>2017-09-25T07:58:57Z</time>
      </trkpt>
      <trkpt lat="43.34865" lon="2.65914">
        <ele>335.3</ele>
        <time>2017-09-25T07:59:18Z</time>
      </trkpt>
      <trkpt lat="43.34874" lon="2.65936">
        <ele>336.27</ele>
        <time>2017-09-25T07:59:34Z</time>
      </trkpt>
      <trkpt lat="43.34886" lon="2.65956">
        <ele>338</ele>
        <time>2017-09-25T07:59:51Z</time>
      </trkpt>
      <trkpt lat="43.349" lon="2.65981">
        <ele>339.69</ele>
        <time>2017-09-25T08:00:11Z</time>
      </trkpt>
      <trkpt lat="43.34914" lon="2.66002">
        <ele>340.45</ele>
        <time>2017-09-25T08:00:29Z</time>
      </trkpt>
      <trkpt lat="43.34927" lon="2.6602">
        <ele>341.73</ele>
        <time>2017-09-25T08:00:46Z</time>
      </trkpt>
      <trkpt lat="43.34938" lon="2.66036">
        <ele>342.53</ele>
        <time>2017-09-25T08:01:01Z</time>
      </trkpt>
      <trkpt lat="43.34948" lon="2.66052">
        <ele>343.15</ele>
        <time>2017-09-25T08:01:17Z</time>
      </trkpt>
      <trkpt lat="43.3496" lon="2.66067">
        <ele>343.69</ele>
        <time>2017-09-25T08:01:34Z</time>
      </trkpt>
      <trkpt lat="43.34978" lon="2.66086">
        <ele>344.83</ele>
        <time>2017-09-25T08:01:51Z</time>
      </trkpt>
      <trkpt lat="43.34982" lon="2.6609">
        <ele>345.03</ele>
        <time>2017-09-25T08:01:55Z</time>
      </trkpt>
      <trkpt lat="43.3499" lon="2.66096">
        <ele>345.37</ele>
        <time>2017-09-25T08:02:03Z</time>
      </trkpt>
      <trkpt lat="43.34997" lon="2.66098">
        <ele>345.45</ele>
        <time>2017-09-25T08:02:10Z</time>
      </trkpt>
      <trkpt lat="43.35011" lon="2.66118">
        <ele>346.01</ele>
        <time>2017-09-25T08:02:28Z</time>
      </trkpt>
      <trkpt lat="43.35015" lon="2.66125">
        <ele>346.28</ele>
        <time>2017-09-25T08:02:34Z</time>
      </trkpt>
      <trkpt lat="43.35022" lon="2.66134">
        <ele>346.15</ele>
        <time>2017-09-25T08:02:43Z</time>
      </trkpt>
      <trkpt lat="43.35024" lon="2.66142">
        <ele>346.04</ele>
        <time>2017-09-25T08:02:48Z</time>
      </trkpt>
      <trkpt lat="43.35006" lon="2.66156">
        <ele>345.25</ele>
        <time>2017-09-25T08:03:05Z</time>
      </trkpt>
      <trkpt lat="43.34988" lon="2.66164">
        <ele>345.69</ele>
        <time>2017-09-25T08:03:20Z</time>
      </trkpt>
      <trkpt lat="43.34975" lon="2.66187">
        <ele>345.03</ele>
        <time>2017-09-25T08:03:37Z</time>
      </trkpt>
      <trkpt lat="43.34973" lon="2.6621">
        <ele>344.9</ele>
        <time>2017-09-25T08:03:51Z</time>
      </trkpt>
      <trkpt lat="43.34974" lon="2.66216">
        <ele>344.97</ele>
        <time>2017-09-25T08:03:55Z</time>
      </trkpt>
      <trkpt lat="43.34978" lon="2.66242">
        <ele>345.66</ele>
        <time>2017-09-25T08:04:12Z</time>
      </trkpt>
      <trkpt lat="43.34981" lon="2.66262">
        <ele>346.84</ele>
        <time>2017-09-25T08:04:26Z</time>
      </trkpt>
      <trkpt lat="43.3498" lon="2.66276">
        <ele>347.15</ele>
        <time>2017-09-25T08:04:39Z</time>
      </trkpt>
      <trkpt lat="43.3498" lon="2.66284">
        <ele>346.98</ele>
        <time>2017-09-25T08:04:48Z</time>
      </trkpt>
      <trkpt lat="43.34974" lon="2.66321">
        <ele>346.91</ele>
        <time>2017-09-25T08:05:13Z</time>
      </trkpt>
      <trkpt lat="43.34976" lon="2.66354">
        <ele>346.84</ele>
        <time>2017-09-25T08:05:35Z</time>
      </trkpt>
      <trkpt lat="43.34977" lon="2.66381">
        <ele>346.43</ele>
        <time>2017-09-25T08:05:51Z</time>
      </trkpt>
      <trkpt lat="43.34966" lon="2.66408">
        <ele>346.2</ele>
        <time>2017-09-25T08:06:08Z</time>
      </trkpt>
      <trkpt lat="43.34964" lon="2.66436">
        <ele>346.53</ele>
        <time>2017-09-25T08:06:26Z</time>
      </trkpt>
      <trkpt lat="43.34966" lon="2.66448">
        <ele>346.75</ele>
        <time>2017-09-25T08:06:34Z</time>
      </trkpt>
      <trkpt lat="43.34975" lon="2.66467">
        <ele>348.04</ele>
        <time>2017-09-25T08:06:53Z</time>
      </trkpt>
      <trkpt lat="43.34974" lon="2.66471">
        <ele>348.86</ele>
        <time>2017-09-25T08:07:19Z</time>
      </trkpt>
      <trkpt lat="43.34975" lon="2.6648">
        <ele>347.92</ele>
        <time>2017-09-25T08:08:04Z</time>
      </trkpt>
      <trkpt lat="43.34975" lon="2.66482">
        <ele>347.85</ele>
        <time>2017-09-25T08:08:05Z</time>
      </trkpt>
      <trkpt lat="43.34975" lon="2.66486">
        <ele>347.7</ele>
        <time>2017-09-25T08:08:08Z</time>
      </trkpt>
      <trkpt lat="43.34974" lon="2.66501">
        <ele>347.46</ele>
        <time>2017-09-25T08:08:20Z</time>
      </trkpt>
      <trkpt lat="43.34974" lon="2.66506">
        <ele>347.67</ele>
        <time>2017-09-25T08:08:24Z</time>
      </trkpt>
      <trkpt lat="43.34974" lon="2.66537">
        <ele>347.72</ele>
        <time>2017-09-25T08:08:45Z</time>
      </trkpt>
      <trkpt lat="43.34975" lon="2.66564">
        <ele>348.29</ele>
        <time>2017-09-25T08:09:03Z</time>
      </trkpt>
      <trkpt lat="43.34977" lon="2.66578">
        <ele>348.68</ele>
        <time>2017-09-25T08:09:13Z</time>
      </trkpt>
      <trkpt lat="43.3497" lon="2.66603">
        <ele>348.32</ele>
        <time>2017-09-25T08:09:29Z</time>
      </trkpt>
      <trkpt lat="43.34966" lon="2.66624">
        <ele>346.94</ele>
        <time>2017-09-25T08:09:49Z</time>
      </trkpt>
      <trkpt lat="43.34962" lon="2.66642">
        <ele>346.48</ele>
        <time>2017-09-25T08:10:09Z</time>
      </trkpt>
      <trkpt lat="43.34962" lon="2.66646">
        <ele>346.47</ele>
        <time>2017-09-25T08:10:12Z</time>
      </trkpt>
      <trkpt lat="43.34959" lon="2.66671">
        <ele>347.1</ele>
        <time>2017-09-25T08:10:31Z</time>
      </trkpt>
      <trkpt lat="43.34961" lon="2.66692">
        <ele>347.68</ele>
        <time>2017-09-25T08:10:47Z</time>
      </trkpt>
      <trkpt lat="43.34968" lon="2.6671">
        <ele>349.83</ele>
        <time>2017-09-25T08:11:02Z</time>
      </trkpt>
      <trkpt lat="43.34975" lon="2.66721">
        <ele>351.48</ele>
        <time>2017-09-25T08:11:20Z</time>
      </trkpt>
      <trkpt lat="43.34974" lon="2.66729">
        <ele>351.82</ele>
        <time>2017-09-25T08:11:40Z</time>
      </trkpt>
      <trkpt lat="43.34966" lon="2.66733">
        <ele>351.74</ele>
        <time>2017-09-25T08:12:01Z</time>
      </trkpt>
      <trkpt lat="43.34964" lon="2.66739">
        <ele>351.65</ele>
        <time>2017-09-25T08:12:21Z</time>
      </trkpt>
      <trkpt lat="43.34965" lon="2.66741">
        <ele>351.58</ele>
        <time>2017-09-25T08:12:41Z</time>
      </trkpt>
      <trkpt lat="43.34961" lon="2.66743">
        <ele>351.38</ele>
        <time>2017-09-25T08:12:55Z</time>
      </trkpt>
      <trkpt lat="43.34947" lon="2.66743">
        <ele>350.79</ele>
        <time>2017-09-25T08:13:10Z</time>
      </trkpt>
      <trkpt lat="43.34926" lon="2.66745">
        <ele>349.84</ele>
        <time>2017-09-25T08:13:29Z</time>
      </trkpt>
      <trkpt lat="43.34907" lon="2.66744">
        <ele>347.96</ele>
        <time>2017-09-25T08:13:45Z</time>
      </trkpt>
      <trkpt lat="43.34885" lon="2.66742">
        <ele>346.23</ele>
        <time>2017-09-25T08:14:03Z</time>
      </trkpt>
      <trkpt lat="43.34882" lon="2.66741">
        <ele>346.11</ele>
        <time>2017-09-25T08:14:05Z</time>
      </trkpt>
      <trkpt lat="43.34872" lon="2.66741">
        <ele>345.74</ele>
        <time>2017-09-25T08:14:14Z</time>
      </trkpt>
      <trkpt lat="43.3485" lon="2.66739">
        <ele>343.9</ele>
        <time>2017-09-25T08:14:33Z</time>
      </trkpt>
      <trkpt lat="43.34844" lon="2.66738">
        <ele>343.51</ele>
        <time>2017-09-25T08:14:38Z</time>
      </trkpt>
      <trkpt lat="43.34825" lon="2.66734">
        <ele>340.73</ele>
        <time>2017-09-25T08:14:53Z</time>
      </trkpt>
      <trkpt lat="43.34797" lon="2.66732">
        <ele>338.37</ele>
        <time>2017-09-25T08:15:14Z</time>
      </trkpt>
      <trkpt lat="43.34771" lon="2.66731">
        <ele>335.91</ele>
        <time>2017-09-25T08:15:34Z</time>
      </trkpt>
      <trkpt lat="43.34755" lon="2.66728">
        <ele>334.03</ele>
        <time>2017-09-25T08:15:47Z</time>
      </trkpt>
      <trkpt lat="43.34726" lon="2.66725">
        <ele>331.78</ele>
        <time>2017-09-25T08:16:07Z</time>
      </trkpt>
      <trkpt lat="43.34701" lon="2.66718">
        <ele>328.51</ele>
        <time>2017-09-25T08:16:27Z</time>
      </trkpt>
      <trkpt lat="43.34679" lon="2.66715">
        <ele>326.77</ele>
        <time>2017-09-25T08:16:45Z</time>
      </trkpt>
      <trkpt lat="43.34673" lon="2.66714">
        <ele>326.31</ele>
        <time>2017-09-25T08:16:50Z</time>
      </trkpt>
      <trkpt lat="43.34663" lon="2.66719">
        <ele>324.81</ele>
        <time>2017-09-25T08:17:00Z</time>
      </trkpt>
      <trkpt lat="43.34653" lon="2.66721">
        <ele>323.45</ele>
        <time>2017-09-25T08:17:10Z</time>
      </trkpt>
      <trkpt lat="43.34651" lon="2.66722">
        <ele>323.21</ele>
        <time>2017-09-25T08:17:12Z</time>
      </trkpt>
      <trkpt lat="43.34636" lon="2.66725">
        <ele>321.2</ele>
        <time>2017-09-25T08:17:26Z</time>
      </trkpt>
      <trkpt lat="43.34605" lon="2.66731">
        <ele>318.17</ele>
        <time>2017-09-25T08:17:47Z</time>
      </trkpt>
      <trkpt lat="43.34603" lon="2.66729">
        <ele>317.76</ele>
        <time>2017-09-25T08:17:49Z</time>
      </trkpt>
      <trkpt lat="43.34594" lon="2.66719">
        <ele>315.29</ele>
        <time>2017-09-25T08:18:06Z</time>
      </trkpt>
      <trkpt lat="43.34589" lon="2.66733">
        <ele>316.25</ele>
        <time>2017-09-25T08:18:25Z</time>
      </trkpt>
      <trkpt lat="43.3458" lon="2.6675">
        <ele>314.76</ele>
        <time>2017-09-25T08:18:44Z</time>
      </trkpt>
      <trkpt lat="43.34575" lon="2.66779">
        <ele>313.8</ele>
        <time>2017-09-25T08:19:09Z</time>
      </trkpt>
      <trkpt lat="43.34562" lon="2.66802">
        <ele>313.16</ele>
        <time>2017-09-25T08:19:28Z</time>
      </trkpt>
      <trkpt lat="43.34554" lon="2.66804">
        <ele>312.13</ele>
        <time>2017-09-25T08:19:38Z</time>
      </trkpt>
      <trkpt lat="43.34552" lon="2.66804">
        <ele>311.95</ele>
        <time>2017-09-25T08:19:40Z</time>
      </trkpt>
      <trkpt lat="43.34547" lon="2.66807">
        <ele>311.45</ele>
        <time>2017-09-25T08:19:45Z</time>
      </trkpt>
      <trkpt lat="43.34532" lon="2.66813">
        <ele>309.56</ele>
        <time>2017-09-25T08:20:01Z</time>
      </trkpt>
      <trkpt lat="43.3452" lon="2.66817">
        <ele>307.31</ele>
        <time>2017-09-25T08:20:16Z</time>
      </trkpt>
      <trkpt lat="43.34506" lon="2.66821">
        <ele>305.11</ele>
        <time>2017-09-25T08:20:30Z</time>
      </trkpt>
      <trkpt lat="43.34498" lon="2.66834">
        <ele>302.01</ele>
        <time>2017-09-25T08:20:45Z</time>
      </trkpt>
      <trkpt lat="43.34498" lon="2.66835">
        <ele>301.87</ele>
        <time>2017-09-25T08:20:46Z</time>
      </trkpt>
      <trkpt lat="43.34497" lon="2.66837">
        <ele>301.67</ele>
        <time>2017-09-25T08:20:48Z</time>
      </trkpt>
      <trkpt lat="43.34489" lon="2.66855">
        <ele>300.14</ele>
        <time>2017-09-25T08:21:03Z</time>
      </trkpt>
      <trkpt lat="43.3448" lon="2.66877">
        <ele>298.06</ele>
        <time>2017-09-25T08:21:18Z</time>
      </trkpt>
      <trkpt lat="43.34477" lon="2.66894">
        <ele>294.98</ele>
        <time>2017-09-25T08:21:32Z</time>
      </trkpt>
      <trkpt lat="43.34475" lon="2.66919">
        <ele>292.26</ele>
        <time>2017-09-25T08:21:49Z</time>
      </trkpt>
      <trkpt lat="43.34471" lon="2.66944">
        <ele>290.04</ele>
        <time>2017-09-25T08:22:05Z</time>
      </trkpt>
      <trkpt lat="43.34468" lon="2.66952">
        <ele>289.98</ele>
        <time>2017-09-25T08:22:11Z</time>
      </trkpt>
      <trkpt lat="43.34458" lon="2.66961">
        <ele>290.13</ele>
        <time>2017-09-25T08:22:34Z</time>
      </trkpt>
      <trkpt lat="43.34445" lon="2.6697">
        <ele>290.23</ele>
        <time>2017-09-25T08:22:57Z</time>
      </trkpt>
      <trkpt lat="43.34442" lon="2.6697">
        <ele>290.3</ele>
        <time>2017-09-25T08:23:25Z</time>
      </trkpt>
      <trkpt lat="43.34438" lon="2.66974">
        <ele>290.49</ele>
        <time>2017-09-25T08:23:30Z</time>
      </trkpt>
      <trkpt lat="43.34422" lon="2.66981">
        <ele>290.9</ele>
        <time>2017-09-25T08:23:49Z</time>
      </trkpt>
      <trkpt lat="43.34403" lon="2.66985">
        <ele>290.69</ele>
        <time>2017-09-25T08:24:08Z</time>
      </trkpt>
      <trkpt lat="43.34385" lon="2.66991">
        <ele>291.05</ele>
        <time>2017-09-25T08:24:26Z</time>
      </trkpt>
      <trkpt lat="43.34368" lon="2.67005">
        <ele>290.82</ele>
        <time>2017-09-25T08:24:46Z</time>
      </trkpt>
      <trkpt lat="43.34351" lon="2.67019">
        <ele>291.1</ele>
        <time>2017-09-25T08:25:09Z</time>
      </trkpt>
      <trkpt lat="43.3434" lon="2.67034">
        <ele>292.84</ele>
        <time>2017-09-25T08:25:28Z</time>
      </trkpt>
      <trkpt lat="43.34334" lon="2.67058">
        <ele>295.94</ele>
        <time>2017-09-25T08:25:52Z</time>
      </trkpt>
      <trkpt lat="43.34329" lon="2.67074">
        <ele>297.61</ele>
        <time>2017-09-25T08:26:13Z</time>
      </trkpt>
      <trkpt lat="43.34321" lon="2.67085">
        <ele>297.91</ele>
        <time>2017-09-25T08:26:33Z</time>
      </trkpt>
      <trkpt lat="43.34325" lon="2.67093">
        <ele>297.7</ele>
        <time>2017-09-25T08:26:50Z</time>
      </trkpt>
      <trkpt lat="43.34319" lon="2.67091">
        <ele>297.01</ele>
        <time>2017-09-25T08:27:15Z</time>
      </trkpt>
      <trkpt lat="43.34317" lon="2.67092">
        <ele>297.42</ele>
        <time>2017-09-25T08:27:36Z</time>
      </trkpt>
      <trkpt lat="43.34318" lon="2.67081">
        <ele>297.58</ele>
        <time>2017-09-25T08:28:00Z</time>
      </trkpt>
      <trkpt lat="43.34318" lon="2.67079">
        <ele>297.22</ele>
        <time>2017-09-25T08:28:20Z</time>
      </trkpt>
      <trkpt lat="43.34317" lon="2.67083">
        <ele>297.06</ele>
        <time>2017-09-25T08:28:52Z</time>
      </trkpt>
      <trkpt lat="43.34316" lon="2.67083">
        <ele>297.4</ele>
        <time>2017-09-25T08:29:28Z</time>
      </trkpt>
      <trkpt lat="43.34318" lon="2.6708">
        <ele>297.58</ele>
        <time>2017-09-25T08:30:01Z</time>
      </trkpt>
      <trkpt lat="43.34308" lon="2.67076">
        <ele>298.1</ele>
        <time>2017-09-25T08:30:28Z</time>
      </trkpt>
      <trkpt lat="43.34303" lon="2.67067">
        <ele>298.53</ele>
        <time>2017-09-25T08:30:40Z</time>
      </trkpt>
      <trkpt lat="43.34297" lon="2.67058">
        <ele>298.74</ele>
        <time>2017-09-25T08:30:51Z</time>
      </trkpt>
      <trkpt lat="43.34293" lon="2.67054">
        <ele>298.91</ele>
        <time>2017-09-25T08:30:57Z</time>
      </trkpt>
      <trkpt lat="43.34276" lon="2.6704">
        <ele>300.19</ele>
        <time>2017-09-25T08:31:15Z</time>
      </trkpt>
      <trkpt lat="43.34263" lon="2.67033">
        <ele>301.67</ele>
        <time>2017-09-25T08:31:30Z</time>
      </trkpt>
      <trkpt lat="43.34245" lon="2.67028">
        <ele>303.45</ele>
        <time>2017-09-25T08:31:52Z</time>
      </trkpt>
      <trkpt lat="43.3423" lon="2.67021">
        <ele>304.62</ele>
        <time>2017-09-25T08:32:10Z</time>
      </trkpt>
      <trkpt lat="43.34214" lon="2.67017">
        <ele>306.67</ele>
        <time>2017-09-25T08:32:29Z</time>
      </trkpt>
      <trkpt lat="43.34198" lon="2.67008">
        <ele>308.86</ele>
        <time>2017-09-25T08:32:47Z</time>
      </trkpt>
      <trkpt lat="43.34186" lon="2.67006">
        <ele>310.66</ele>
        <time>2017-09-25T08:33:00Z</time>
      </trkpt>
      <trkpt lat="43.34167" lon="2.66999">
        <ele>312.03</ele>
        <time>2017-09-25T08:33:22Z</time>
      </trkpt>
      <trkpt lat="43.34154" lon="2.66993">
        <ele>312.46</ele>
        <time>2017-09-25T08:33:37Z</time>
      </trkpt>
      <trkpt lat="43.34141" lon="2.66985">
        <ele>312.97</ele>
        <time>2017-09-25T08:33:52Z</time>
      </trkpt>
      <trkpt lat="43.34127" lon="2.6698">
        <ele>313.16</ele>
        <time>2017-09-25T08:34:08Z</time>
      </trkpt>
      <trkpt lat="43.34114" lon="2.66981">
        <ele>313.05</ele>
        <time>2017-09-25T08:34:21Z</time>
      </trkpt>
      <trkpt lat="43.34099" lon="2.66983">
        <ele>313.05</ele>
        <time>2017-09-25T08:34:34Z</time>
      </trkpt>
      <trkpt lat="43.34084" lon="2.66993">
        <ele>310.95</ele>
        <time>2017-09-25T08:34:50Z</time>
      </trkpt>
      <trkpt lat="43.3407" lon="2.67009">
        <ele>308.78</ele>
        <time>2017-09-25T08:35:11Z</time>
      </trkpt>
      <trkpt lat="43.34052" lon="2.6703">
        <ele>307.63</ele>
        <time>2017-09-25T08:35:34Z</time>
      </trkpt>
      <trkpt lat="43.34031" lon="2.67052">
        <ele>307.43</ele>
        <time>2017-09-25T08:35:54Z</time>
      </trkpt>
      <trkpt lat="43.34019" lon="2.67068">
        <ele>306.7</ele>
        <time>2017-09-25T08:36:11Z</time>
      </trkpt>
      <trkpt lat="43.34012" lon="2.67079">
        <ele>306.5</ele>
        <time>2017-09-25T08:36:20Z</time>
      </trkpt>
      <trkpt lat="43.34001" lon="2.67094">
        <ele>305.63</ele>
        <time>2017-09-25T08:36:36Z</time>
      </trkpt>
      <trkpt lat="43.33988" lon="2.67111">
        <ele>304.33</ele>
        <time>2017-09-25T08:36:54Z</time>
      </trkpt>
      <trkpt lat="43.33976" lon="2.67127">
        <ele>303.4</ele>
        <time>2017-09-25T08:37:09Z</time>
      </trkpt>
      <trkpt lat="43.33959" lon="2.6713">
        <ele>302.7</ele>
        <time>2017-09-25T08:37:30Z</time>
      </trkpt>
      <trkpt lat="43.33942" lon="2.67122">
        <ele>303.35</ele>
        <time>2017-09-25T08:37:49Z</time>
      </trkpt>
      <trkpt lat="43.33933" lon="2.67117">
        <ele>303.52</ele>
        <time>2017-09-25T08:37:58Z</time>
      </trkpt>
      <trkpt lat="43.33917" lon="2.6711">
        <ele>303.38</ele>
        <time>2017-09-25T08:38:14Z</time>
      </trkpt>
      <trkpt lat="43.33909" lon="2.67105">
        <ele>303.17</ele>
        <time>2017-09-25T08:38:23Z</time>
      </trkpt>
      <trkpt lat="43.33892" lon="2.67096">
        <ele>303.26</ele>
        <time>2017-09-25T08:38:40Z</time>
      </trkpt>
      <trkpt lat="43.33875" lon="2.67082">
        <ele>302.48</ele>
        <time>2017-09-25T08:39:01Z</time>
      </trkpt>
      <trkpt lat="43.33855" lon="2.67081">
        <ele>300.94</ele>
        <time>2017-09-25T08:39:22Z</time>
      </trkpt>
      <trkpt lat="43.33836" lon="2.67084">
        <ele>300.29</ele>
        <time>2017-09-25T08:39:43Z</time>
      </trkpt>
      <trkpt lat="43.33825" lon="2.67062">
        <ele>299.68</ele>
        <time>2017-09-25T08:40:07Z</time>
      </trkpt>
      <trkpt lat="43.33816" lon="2.67035">
        <ele>298.29</ele>
        <time>2017-09-25T08:40:31Z</time>
      </trkpt>
      <trkpt lat="43.33805" lon="2.6701">
        <ele>298</ele>
        <time>2017-09-25T08:40:54Z</time>
      </trkpt>
      <trkpt lat="43.33795" lon="2.66992">
        <ele>297.07</ele>
        <time>2017-09-25T08:41:13Z</time>
      </trkpt>
      <trkpt lat="43.33782" lon="2.66972">
        <ele>295.42</ele>
        <time>2017-09-25T08:41:35Z</time>
      </trkpt>
      <trkpt lat="43.33768" lon="2.66954">
        <ele>294.09</ele>
        <time>2017-09-25T08:41:55Z</time>
      </trkpt>
      <trkpt lat="43.33754" lon="2.66944">
        <ele>292.74</ele>
        <time>2017-09-25T08:42:14Z</time>
      </trkpt>
      <trkpt lat="43.33751" lon="2.66943">
        <ele>292.64</ele>
        <time>2017-09-25T08:42:19Z</time>
      </trkpt>
      <trkpt lat="43.3375" lon="2.66936">
        <ele>292.11</ele>
        <time>2017-09-25T08:42:39Z</time>
      </trkpt>
      <trkpt lat="43.33742" lon="2.66935">
        <ele>291.9</ele>
        <time>2017-09-25T08:43:14Z</time>
      </trkpt>
      <trkpt lat="43.3374" lon="2.66936">
        <ele>291.91</ele>
        <time>2017-09-25T08:43:16Z</time>
      </trkpt>
      <trkpt lat="43.3373" lon="2.66952">
        <ele>290.55</ele>
        <time>2017-09-25T08:43:32Z</time>
      </trkpt>
      <trkpt lat="43.3373" lon="2.66953">
        <ele>290.45</ele>
        <time>2017-09-25T08:43:33Z</time>
      </trkpt>
      <trkpt lat="43.33723" lon="2.66971">
        <ele>288.67</ele>
        <time>2017-09-25T08:43:48Z</time>
      </trkpt>
      <trkpt lat="43.33722" lon="2.66972">
        <ele>288.53</ele>
        <time>2017-09-25T08:43:49Z</time>
      </trkpt>
      <trkpt lat="43.33708" lon="2.67001">
        <ele>285.95</ele>
        <time>2017-09-25T08:44:07Z</time>
      </trkpt>
      <trkpt lat="43.33703" lon="2.67021">
        <ele>284.26</ele>
        <time>2017-09-25T08:44:19Z</time>
      </trkpt>
      <trkpt lat="43.33695" lon="2.67036">
        <ele>282.64</ele>
        <time>2017-09-25T08:44:31Z</time>
      </trkpt>
      <trkpt lat="43.33687" lon="2.67059">
        <ele>280.19</ele>
        <time>2017-09-25T08:44:46Z</time>
      </trkpt>
      <trkpt lat="43.33686" lon="2.67061">
        <ele>280.06</ele>
        <time>2017-09-25T08:44:47Z</time>
      </trkpt>
      <trkpt lat="43.3368" lon="2.67081">
        <ele>278.39</ele>
        <time>2017-09-25T08:44:59Z</time>
      </trkpt>
      <trkpt lat="43.33678" lon="2.67086">
        <ele>277.87</ele>
        <time>2017-09-25T08:45:02Z</time>
      </trkpt>
      <trkpt lat="43.33677" lon="2.671">
        <ele>276.39</ele>
        <time>2017-09-25T08:45:10Z</time>
      </trkpt>
      <trkpt lat="43.33674" lon="2.67106">
        <ele>275.87</ele>
        <time>2017-09-25T08:45:13Z</time>
      </trkpt>
      <trkpt lat="43.33665" lon="2.67135">
        <ele>273.28</ele>
        <time>2017-09-25T08:45:29Z</time>
      </trkpt>
      <trkpt lat="43.33657" lon="2.67164">
        <ele>271</ele>
        <time>2017-09-25T08:45:45Z</time>
      </trkpt>
      <trkpt lat="43.33649" lon="2.67188">
        <ele>268.77</ele>
        <time>2017-09-25T08:46:00Z</time>
      </trkpt>
      <trkpt lat="43.33646" lon="2.67198">
        <ele>268.41</ele>
        <time>2017-09-25T08:46:06Z</time>
      </trkpt>
      <trkpt lat="43.33642" lon="2.67211">
        <ele>267.8</ele>
        <time>2017-09-25T08:46:14Z</time>
      </trkpt>
      <trkpt lat="43.33642" lon="2.67216">
        <ele>267.62</ele>
        <time>2017-09-25T08:46:17Z</time>
      </trkpt>
      <trkpt lat="43.33642" lon="2.6724">
        <ele>264.98</ele>
        <time>2017-09-25T08:46:36Z</time>
      </trkpt>
      <trkpt lat="43.33638" lon="2.67267">
        <ele>262.64</ele>
        <time>2017-09-25T08:46:55Z</time>
      </trkpt>
      <trkpt lat="43.33629" lon="2.67264">
        <ele>260.86</ele>
        <time>2017-09-25T08:47:08Z</time>
      </trkpt>
      <trkpt lat="43.33625" lon="2.67249">
        <ele>259.91</ele>
        <time>2017-09-25T08:47:23Z</time>
      </trkpt>
      <trkpt lat="43.33625" lon="2.67249">
        <ele>259.63</ele>
        <time>2017-09-25T08:47:47Z</time>
      </trkpt>
      <trkpt lat="43.33623" lon="2.67245">
        <ele>259.72</ele>
        <time>2017-09-25T08:48:14Z</time>
      </trkpt>
      <trkpt lat="43.33623" lon="2.67239">
        <ele>259.5</ele>
        <time>2017-09-25T08:48:35Z</time>
      </trkpt>
      <trkpt lat="43.3362" lon="2.67229">
        <ele>259.83</ele>
        <time>2017-09-25T08:48:48Z</time>
      </trkpt>
      <trkpt lat="43.33619" lon="2.67226">
        <ele>259.77</ele>
        <time>2017-09-25T08:48:51Z</time>
      </trkpt>
      <trkpt lat="43.33618" lon="2.67206">
        <ele>259.32</ele>
        <time>2017-09-25T08:49:07Z</time>
      </trkpt>
      <trkpt lat="43.33616" lon="2.67199">
        <ele>259</ele>
        <time>2017-09-25T08:49:12Z</time>
      </trkpt>
      <trkpt lat="43.33616" lon="2.6718">
        <ele>258.41</ele>
        <time>2017-09-25T08:49:27Z</time>
      </trkpt>
      <trkpt lat="43.33613" lon="2.67161">
        <ele>258.39</ele>
        <time>2017-09-25T08:49:40Z</time>
      </trkpt>
      <trkpt lat="43.33609" lon="2.67142">
        <ele>258.13</ele>
        <time>2017-09-25T08:49:53Z</time>
      </trkpt>
      <trkpt lat="43.33607" lon="2.67132">
        <ele>258.07</ele>
        <time>2017-09-25T08:50:01Z</time>
      </trkpt>
      <trkpt lat="43.33604" lon="2.6711">
        <ele>257.83</ele>
        <time>2017-09-25T08:50:15Z</time>
      </trkpt>
      <trkpt lat="43.33599" lon="2.67089">
        <ele>258.24</ele>
        <time>2017-09-25T08:50:29Z</time>
      </trkpt>
      <trkpt lat="43.33598" lon="2.67082">
        <ele>258.62</ele>
        <time>2017-09-25T08:50:33Z</time>
      </trkpt>
      <trkpt lat="43.33595" lon="2.67063">
        <ele>257.73</ele>
        <time>2017-09-25T08:50:45Z</time>
      </trkpt>
      <trkpt lat="43.33595" lon="2.67051">
        <ele>256.95</ele>
        <time>2017-09-25T08:50:53Z</time>
      </trkpt>
      <trkpt lat="43.33595" lon="2.67031">
        <ele>255.83</ele>
        <time>2017-09-25T08:51:06Z</time>
      </trkpt>
      <trkpt lat="43.33591" lon="2.67011">
        <ele>255.52</ele>
        <time>2017-09-25T08:51:19Z</time>
      </trkpt>
      <trkpt lat="43.33587" lon="2.66997">
        <ele>255.52</ele>
        <time>2017-09-25T08:51:29Z</time>
      </trkpt>
      <trkpt lat="43.33587" lon="2.66989">
        <ele>255.14</ele>
        <time>2017-09-25T08:51:34Z</time>
      </trkpt>
      <trkpt lat="43.33585" lon="2.66968">
        <ele>253.88</ele>
        <time>2017-09-25T08:51:49Z</time>
      </trkpt>
      <trkpt lat="43.33585" lon="2.66962">
        <ele>253.75</ele>
        <time>2017-09-25T08:51:53Z</time>
      </trkpt>
      <trkpt lat="43.3359" lon="2.6694">
        <ele>252.98</ele>
        <time>2017-09-25T08:52:08Z</time>
      </trkpt>
      <trkpt lat="43.33594" lon="2.66917">
        <ele>252.11</ele>
        <time>2017-09-25T08:52:24Z</time>
      </trkpt>
      <trkpt lat="43.33593" lon="2.66895">
        <ele>251.89</ele>
        <time>2017-09-25T08:52:38Z</time>
      </trkpt>
      <trkpt lat="43.33592" lon="2.66887">
        <ele>251.73</ele>
        <time>2017-09-25T08:52:53Z</time>
      </trkpt>
      <trkpt lat="43.33587" lon="2.66879">
        <ele>252.05</ele>
        <time>2017-09-25T08:53:20Z</time>
      </trkpt>
      <trkpt lat="43.33583" lon="2.66876">
        <ele>252.38</ele>
        <time>2017-09-25T08:53:42Z</time>
      </trkpt>
      <trkpt lat="43.33585" lon="2.66875">
        <ele>252.67</ele>
        <time>2017-09-25T08:54:00Z</time>
      </trkpt>
      <trkpt lat="43.33591" lon="2.66871">
        <ele>252.56</ele>
        <time>2017-09-25T08:54:08Z</time>
      </trkpt>
      <trkpt lat="43.33592" lon="2.66866">
        <ele>252.48</ele>
        <time>2017-09-25T08:54:12Z</time>
      </trkpt>
      <trkpt lat="43.33593" lon="2.66859">
        <ele>252.55</ele>
        <time>2017-09-25T08:54:17Z</time>
      </trkpt>
      <trkpt lat="43.33597" lon="2.66843">
        <ele>252.32</ele>
        <time>2017-09-25T08:54:28Z</time>
      </trkpt>
      <trkpt lat="43.33599" lon="2.66837">
        <ele>252.22</ele>
        <time>2017-09-25T08:54:32Z</time>
      </trkpt>
      <trkpt lat="43.33604" lon="2.66827">
        <ele>252.11</ele>
        <time>2017-09-25T08:54:40Z</time>
      </trkpt>
      <trkpt lat="43.33618" lon="2.66808">
        <ele>251.31</ele>
        <time>2017-09-25T08:54:56Z</time>
      </trkpt>
      <trkpt lat="43.33629" lon="2.66795">
        <ele>251.16</ele>
        <time>2017-09-25T08:55:08Z</time>
      </trkpt>
      <trkpt lat="43.33645" lon="2.66776">
        <ele>251.19</ele>
        <time>2017-09-25T08:55:25Z</time>
      </trkpt>
      <trkpt lat="43.33648" lon="2.66771">
        <ele>251.17</ele>
        <time>2017-09-25T08:55:29Z</time>
      </trkpt>
      <trkpt lat="43.33659" lon="2.66762">
        <ele>251.33</ele>
        <time>2017-09-25T08:55:39Z</time>
      </trkpt>
      <trkpt lat="43.33676" lon="2.66755">
        <ele>250.69</ele>
        <time>2017-09-25T08:55:55Z</time>
      </trkpt>
      <trkpt lat="43.33677" lon="2.66754">
        <ele>250.64</ele>
        <time>2017-09-25T08:55:56Z</time>
      </trkpt>
      <trkpt lat="43.33679" lon="2.66755">
        <ele>250.53</ele>
        <time>2017-09-25T08:55:58Z</time>
      </trkpt>
      <trkpt lat="43.337" lon="2.66752">
        <ele>249.54</ele>
        <time>2017-09-25T08:56:16Z</time>
      </trkpt>
      <trkpt lat="43.33718" lon="2.66752">
        <ele>248.71</ele>
        <time>2017-09-25T08:56:31Z</time>
      </trkpt>
      <trkpt lat="43.33737" lon="2.66747">
        <ele>248.41</ele>
        <time>2017-09-25T08:56:47Z</time>
      </trkpt>
      <trkpt lat="43.33756" lon="2.66748">
        <ele>248.61</ele>
        <time>2017-09-25T08:57:05Z</time>
      </trkpt>
      <trkpt lat="43.33772" lon="2.66753">
        <ele>247.38</ele>
        <time>2017-09-25T08:57:21Z</time>
      </trkpt>
      <trkpt lat="43.3378" lon="2.66753">
        <ele>246.93</ele>
        <time>2017-09-25T08:57:31Z</time>
      </trkpt>
      <trkpt lat="43.33782" lon="2.66752">
        <ele>246.83</ele>
        <time>2017-09-25T08:57:33Z</time>
      </trkpt>
      <trkpt lat="43.33798" lon="2.66741">
        <ele>246.89</ele>
        <time>2017-09-25T08:57:49Z</time>
      </trkpt>
      <trkpt lat="43.33804" lon="2.66732">
        <ele>247.65</ele>
        <time>2017-09-25T08:57:57Z</time>
      </trkpt>
      <trkpt lat="43.33805" lon="2.66715">
        <ele>248.83</ele>
        <time>2017-09-25T08:58:10Z</time>
      </trkpt>
      <trkpt lat="43.33798" lon="2.66694">
        <ele>249.2</ele>
        <time>2017-09-25T08:58:27Z</time>
      </trkpt>
      <trkpt lat="43.33797" lon="2.66691">
        <ele>249.11</ele>
        <time>2017-09-25T08:58:30Z</time>
      </trkpt>
      <trkpt lat="43.33795" lon="2.66679">
        <ele>248.71</ele>
        <time>2017-09-25T08:58:38Z</time>
      </trkpt>
      <trkpt lat="43.3379" lon="2.66658">
        <ele>247.6</ele>
        <time>2017-09-25T08:58:54Z</time>
      </trkpt>
      <trkpt lat="43.33785" lon="2.66639">
        <ele>247.02</ele>
        <time>2017-09-25T08:59:07Z</time>
      </trkpt>
      <trkpt lat="43.33782" lon="2.66629">
        <ele>246.55</ele>
        <time>2017-09-25T08:59:15Z</time>
      </trkpt>
      <trkpt lat="43.33781" lon="2.66625">
        <ele>246.28</ele>
        <time>2017-09-25T08:59:18Z</time>
      </trkpt>
      <trkpt lat="43.33779" lon="2.66618">
        <ele>245.9</ele>
        <time>2017-09-25T08:59:24Z</time>
      </trkpt>
      <trkpt lat="43.33778" lon="2.66614">
        <ele>245.64</ele>
        <time>2017-09-25T08:59:27Z</time>
      </trkpt>
      <trkpt lat="43.33771" lon="2.66592">
        <ele>244.96</ele>
        <time>2017-09-25T08:59:43Z</time>
      </trkpt>
      <trkpt lat="43.33765" lon="2.66577">
        <ele>244.62</ele>
        <time>2017-09-25T08:59:57Z</time>
      </trkpt>
      <trkpt lat="43.33757" lon="2.66562">
        <ele>244.57</ele>
        <time>2017-09-25T09:00:09Z</time>
      </trkpt>
      <trkpt lat="43.3375" lon="2.66548">
        <ele>243.58</ele>
        <time>2017-09-25T09:00:22Z</time>
      </trkpt>
      <trkpt lat="43.3375" lon="2.66545">
        <ele>243.42</ele>
        <time>2017-09-25T09:00:24Z</time>
      </trkpt>
      <trkpt lat="43.3375" lon="2.66532">
        <ele>242.86</ele>
        <time>2017-09-25T09:00:33Z</time>
      </trkpt>
      <trkpt lat="43.33758" lon="2.66522">
        <ele>242.35</ele>
        <time>2017-09-25T09:00:43Z</time>
      </trkpt>
      <trkpt lat="43.33776" lon="2.66522">
        <ele>241.4</ele>
        <time>2017-09-25T09:00:59Z</time>
      </trkpt>
      <trkpt lat="43.33791" lon="2.66524">
        <ele>240.57</ele>
        <time>2017-09-25T09:01:15Z</time>
      </trkpt>
      <trkpt lat="43.33808" lon="2.66528">
        <ele>239.89</ele>
        <time>2017-09-25T09:01:31Z</time>
      </trkpt>
      <trkpt lat="43.33825" lon="2.66532">
        <ele>239.1</ele>
        <time>2017-09-25T09:01:46Z</time>
      </trkpt>
      <trkpt lat="43.33839" lon="2.66536">
        <ele>238.5</ele>
        <time>2017-09-25T09:02:00Z</time>
      </trkpt>
      <trkpt lat="43.33851" lon="2.66538">
        <ele>238.62</ele>
        <time>2017-09-25T09:02:11Z</time>
      </trkpt>
      <trkpt lat="43.33854" lon="2.66539">
        <ele>238.41</ele>
        <time>2017-09-25T09:02:14Z</time>
      </trkpt>
      <trkpt lat="43.3387" lon="2.66543">
        <ele>237.41</ele>
        <time>2017-09-25T09:02:29Z</time>
      </trkpt>
      <trkpt lat="43.33888" lon="2.66544">
        <ele>236.08</ele>
        <time>2017-09-25T09:02:48Z</time>
      </trkpt>
      <trkpt lat="43.3389" lon="2.66544">
        <ele>235.95</ele>
        <time>2017-09-25T09:02:50Z</time>
      </trkpt>
      <trkpt lat="43.33906" lon="2.66546">
        <ele>235.46</ele>
        <time>2017-09-25T09:03:06Z</time>
      </trkpt>
      <trkpt lat="43.33926" lon="2.66548">
        <ele>233.92</ele>
        <time>2017-09-25T09:03:23Z</time>
      </trkpt>
      <trkpt lat="43.33942" lon="2.66544">
        <ele>233.11</ele>
        <time>2017-09-25T09:03:38Z</time>
      </trkpt>
      <trkpt lat="43.33959" lon="2.66533">
        <ele>232.83</ele>
        <time>2017-09-25T09:03:54Z</time>
      </trkpt>
      <trkpt lat="43.33975" lon="2.66527">
        <ele>232.67</ele>
        <time>2017-09-25T09:04:08Z</time>
      </trkpt>
      <trkpt lat="43.33988" lon="2.66519">
        <ele>232.25</ele>
        <time>2017-09-25T09:04:24Z</time>
      </trkpt>
      <trkpt lat="43.34003" lon="2.66507">
        <ele>231.75</ele>
        <time>2017-09-25T09:04:40Z</time>
      </trkpt>
      <trkpt lat="43.34006" lon="2.66496">
        <ele>231.75</ele>
        <time>2017-09-25T09:04:56Z</time>
      </trkpt>
      <trkpt lat="43.34008" lon="2.66492">
        <ele>231.77</ele>
        <time>2017-09-25T09:05:00Z</time>
      </trkpt>
      <trkpt lat="43.34007" lon="2.66488">
        <ele>231.8</ele>
        <time>2017-09-25T09:05:03Z</time>
      </trkpt>
      <trkpt lat="43.34004" lon="2.66474">
        <ele>231.32</ele>
        <time>2017-09-25T09:05:13Z</time>
      </trkpt>
      <trkpt lat="43.34" lon="2.66449">
        <ele>230.88</ele>
        <time>2017-09-25T09:05:30Z</time>
      </trkpt>
      <trkpt lat="43.33996" lon="2.66426">
        <ele>230.74</ele>
        <time>2017-09-25T09:05:44Z</time>
      </trkpt>
      <trkpt lat="43.33997" lon="2.6641">
        <ele>231.52</ele>
        <time>2017-09-25T09:06:01Z</time>
      </trkpt>
      <trkpt lat="43.33995" lon="2.66399">
        <ele>232</ele>
        <time>2017-09-25T09:06:17Z</time>
      </trkpt>
      <trkpt lat="43.33994" lon="2.66382">
        <ele>232.13</ele>
        <time>2017-09-25T09:06:33Z</time>
      </trkpt>
      <trkpt lat="43.33993" lon="2.66375">
        <ele>232.15</ele>
        <time>2017-09-25T09:06:39Z</time>
      </trkpt>
      <trkpt lat="43.33986" lon="2.66367">
        <ele>231.12</ele>
        <time>2017-09-25T09:06:49Z</time>
      </trkpt>
      <trkpt lat="43.33972" lon="2.66365">
        <ele>229.32</ele>
        <time>2017-09-25T09:07:01Z</time>
      </trkpt>
      <trkpt lat="43.33968" lon="2.66381">
        <ele>227.72</ele>
        <time>2017-09-25T09:07:14Z</time>
      </trkpt>
      <trkpt lat="43.33967" lon="2.664">
        <ele>226.72</ele>
        <time>2017-09-25T09:07:28Z</time>
      </trkpt>
      <trkpt lat="43.33966" lon="2.66402">
        <ele>226.57</ele>
        <time>2017-09-25T09:07:30Z</time>
      </trkpt>
      <trkpt lat="43.33954" lon="2.66406">
        <ele>224.59</ele>
        <time>2017-09-25T09:07:46Z</time>
      </trkpt>
      <trkpt lat="43.33944" lon="2.66396">
        <ele>222.47</ele>
        <time>2017-09-25T09:08:01Z</time>
      </trkpt>
      <trkpt lat="43.33942" lon="2.66393">
        <ele>221.87</ele>
        <time>2017-09-25T09:08:05Z</time>
      </trkpt>
      <trkpt lat="43.33938" lon="2.66388">
        <ele>221.1</ele>
        <time>2017-09-25T09:08:17Z</time>
      </trkpt>
      <trkpt lat="43.33936" lon="2.66386">
        <ele>220.92</ele>
        <time>2017-09-25T09:08:19Z</time>
      </trkpt>
      <trkpt lat="43.3393" lon="2.66381">
        <ele>220.4</ele>
        <time>2017-09-25T09:08:24Z</time>
      </trkpt>
      <trkpt lat="43.3392" lon="2.66366">
        <ele>218.75</ele>
        <time>2017-09-25T09:08:38Z</time>
      </trkpt>
      <trkpt lat="43.33907" lon="2.66343">
        <ele>216.17</ele>
        <time>2017-09-25T09:08:55Z</time>
      </trkpt>
      <trkpt lat="43.339" lon="2.6633">
        <ele>215.16</ele>
        <time>2017-09-25T09:09:07Z</time>
      </trkpt>
      <trkpt lat="43.33898" lon="2.66328">
        <ele>214.9</ele>
        <time>2017-09-25T09:09:10Z</time>
      </trkpt>
      <trkpt lat="43.33888" lon="2.66313">
        <ele>213.43</ele>
        <time>2017-09-25T09:09:26Z</time>
      </trkpt>
      <trkpt lat="43.33873" lon="2.66295">
        <ele>211.18</ele>
        <time>2017-09-25T09:09:46Z</time>
      </trkpt>
      <trkpt lat="43.33862" lon="2.66279">
        <ele>209.15</ele>
        <time>2017-09-25T09:10:01Z</time>
      </trkpt>
      <trkpt lat="43.3385" lon="2.66264">
        <ele>207.21</ele>
        <time>2017-09-25T09:10:19Z</time>
      </trkpt>
      <trkpt lat="43.3384" lon="2.66248">
        <ele>205.35</ele>
        <time>2017-09-25T09:10:37Z</time>
      </trkpt>
      <trkpt lat="43.33828" lon="2.66232">
        <ele>202.51</ele>
        <time>2017-09-25T09:10:57Z</time>
      </trkpt>
      <trkpt lat="43.33816" lon="2.66207">
        <ele>200.74</ele>
        <time>2017-09-25T09:11:18Z</time>
      </trkpt>
      <trkpt lat="43.33806" lon="2.66185">
        <ele>197.88</ele>
        <time>2017-09-25T09:11:38Z</time>
      </trkpt>
      <trkpt lat="43.33797" lon="2.6619">
        <ele>194.73</ele>
        <time>2017-09-25T09:11:56Z</time>
      </trkpt>
      <trkpt lat="43.33795" lon="2.66209">
        <ele>191.61</ele>
        <time>2017-09-25T09:12:17Z</time>
      </trkpt>
      <trkpt lat="43.33789" lon="2.66233">
        <ele>188.58</ele>
        <time>2017-09-25T09:12:37Z</time>
      </trkpt>
      <trkpt lat="43.33788" lon="2.66238">
        <ele>187.95</ele>
        <time>2017-09-25T09:12:41Z</time>
      </trkpt>
      <trkpt lat="43.33786" lon="2.66258">
        <ele>185.99</ele>
        <time>2017-09-25T09:12:57Z</time>
      </trkpt>
      <trkpt lat="43.33782" lon="2.66286">
        <ele>183.21</ele>
        <time>2017-09-25T09:13:19Z</time>
      </trkpt>
      <trkpt lat="43.33775" lon="2.66319">
        <ele>180.35</ele>
        <time>2017-09-25T09:13:45Z</time>
      </trkpt>
      <trkpt lat="43.3377" lon="2.66326">
        <ele>180.67</ele>
        <time>2017-09-25T09:14:06Z</time>
      </trkpt>
      <trkpt lat="43.33771" lon="2.66328">
        <ele>180.62</ele>
        <time>2017-09-25T09:14:36Z</time>
      </trkpt>
      <trkpt lat="43.33771" lon="2.66327">
        <ele>180.53</ele>
        <time>2017-09-25T09:14:58Z</time>
      </trkpt>
      <trkpt lat="43.33771" lon="2.66325">
        <ele>180.67</ele>
        <time>2017-09-25T09:15:32Z</time>
      </trkpt>
      <trkpt lat="43.33771" lon="2.66325">
        <ele>180.39</ele>
        <time>2017-09-25T09:16:08Z</time>
      </trkpt>
      <trkpt lat="43.33765" lon="2.66323">
        <ele>180.63</ele>
        <time>2017-09-25T09:16:36Z</time>
      </trkpt>
      <trkpt lat="43.33763" lon="2.66319">
        <ele>180.67</ele>
        <time>2017-09-25T09:16:40Z</time>
      </trkpt>
      <trkpt lat="43.33753" lon="2.66301">
        <ele>180.31</ele>
        <time>2017-09-25T09:16:58Z</time>
      </trkpt>
      <trkpt lat="43.33742" lon="2.66287">
        <ele>178.96</ele>
        <time>2017-09-25T09:17:15Z</time>
      </trkpt>
      <trkpt lat="43.33728" lon="2.66279">
        <ele>177.48</ele>
        <time>2017-09-25T09:17:29Z</time>
      </trkpt>
      <trkpt lat="43.33724" lon="2.66277">
        <ele>177.29</ele>
        <time>2017-09-25T09:17:33Z</time>
      </trkpt>
      <trkpt lat="43.33716" lon="2.66255">
        <ele>175.79</ele>
        <time>2017-09-25T09:17:51Z</time>
      </trkpt>
      <trkpt lat="43.33714" lon="2.66231">
        <ele>174.49</ele>
        <time>2017-09-25T09:18:09Z</time>
      </trkpt>
      <trkpt lat="43.33708" lon="2.66207">
        <ele>172.66</ele>
        <time>2017-09-25T09:18:30Z</time>
      </trkpt>
      <trkpt lat="43.33705" lon="2.66204">
        <ele>172.5</ele>
        <time>2017-09-25T09:18:59Z</time>
      </trkpt>
      <trkpt lat="43.33701" lon="2.66197">
        <ele>172.3</ele>
        <time>2017-09-25T09:19:29Z</time>
      </trkpt>
      <trkpt lat="43.33701" lon="2.66197">
        <ele>172.21</ele>
        <time>2017-09-25T09:19:30Z</time>
      </trkpt>
      <trkpt lat="43.337" lon="2.66193">
        <ele>172.02</ele>
        <time>2017-09-25T09:19:34Z</time>
      </trkpt>
      <trkpt lat="43.33693" lon="2.66175">
        <ele>171.1</ele>
        <time>2017-09-25T09:19:50Z</time>
      </trkpt>
      <trkpt lat="43.33693" lon="2.66174">
        <ele>171</ele>
        <time>2017-09-25T09:19:51Z</time>
      </trkpt>
      <trkpt lat="43.33692" lon="2.66168">
        <ele>170.67</ele>
        <time>2017-09-25T09:19:55Z</time>
      </trkpt>
      <trkpt lat="43.33684" lon="2.66151">
        <ele>169.46</ele>
        <time>2017-09-25T09:20:10Z</time>
      </trkpt>
      <trkpt lat="43.33676" lon="2.66133">
        <ele>168.28</ele>
        <time>2017-09-25T09:20:25Z</time>
      </trkpt>
      <trkpt lat="43.3367" lon="2.66118">
        <ele>167.3</ele>
        <time>2017-09-25T09:20:39Z</time>
      </trkpt>
      <trkpt lat="43.33665" lon="2.66102">
        <ele>165.03</ele>
        <time>2017-09-25T09:20:57Z</time>
      </trkpt>
      <trkpt lat="43.33663" lon="2.66083">
        <ele>163.25</ele>
        <time>2017-09-25T09:21:17Z</time>
      </trkpt>
      <trkpt lat="43.33662" lon="2.66076">
        <ele>162.56</ele>
        <time>2017-09-25T09:21:24Z</time>
      </trkpt>
      <trkpt lat="43.33663" lon="2.66061">
        <ele>161.48</ele>
        <time>2017-09-25T09:21:38Z</time>
      </trkpt>
      <trkpt lat="43.33668" lon="2.6605">
        <ele>161.64</ele>
        <time>2017-09-25T09:21:51Z</time>
      </trkpt>
      <trkpt lat="43.33664" lon="2.66036">
        <ele>162.53</ele>
        <time>2017-09-25T09:22:07Z</time>
      </trkpt>
      <trkpt lat="43.33662" lon="2.66035">
        <ele>162.6</ele>
        <time>2017-09-25T09:22:09Z</time>
      </trkpt>
      <trkpt lat="43.33643" lon="2.66036">
        <ele>163.39</ele>
        <time>2017-09-25T09:22:28Z</time>
      </trkpt>
      <trkpt lat="43.33642" lon="2.66035">
        <ele>163.4</ele>
        <time>2017-09-25T09:22:29Z</time>
      </trkpt>
      <trkpt lat="43.33636" lon="2.66036">
        <ele>163.64</ele>
        <time>2017-09-25T09:22:35Z</time>
      </trkpt>
      <trkpt lat="43.33617" lon="2.66036">
        <ele>164.4</ele>
        <time>2017-09-25T09:22:53Z</time>
      </trkpt>
      <trkpt lat="43.33603" lon="2.66033">
        <ele>165.47</ele>
        <time>2017-09-25T09:23:06Z</time>
      </trkpt>
      <trkpt lat="43.33586" lon="2.66034">
        <ele>166.5</ele>
        <time>2017-09-25T09:23:22Z</time>
      </trkpt>
      <trkpt lat="43.33571" lon="2.66038">
        <ele>167.22</ele>
        <time>2017-09-25T09:23:36Z</time>
      </trkpt>
      <trkpt lat="43.33557" lon="2.66042">
        <ele>167.97</ele>
        <time>2017-09-25T09:23:49Z</time>
      </trkpt>
      <trkpt lat="43.33554" lon="2.66044">
        <ele>168.11</ele>
        <time>2017-09-25T09:23:52Z</time>
      </trkpt>
      <trkpt lat="43.33539" lon="2.6605">
        <ele>168.8</ele>
        <time>2017-09-25T09:24:07Z</time>
      </trkpt>
      <trkpt lat="43.33528" lon="2.66059">
        <ele>169.43</ele>
        <time>2017-09-25T09:24:18Z</time>
      </trkpt>
      <trkpt lat="43.33515" lon="2.66071">
        <ele>170.76</ele>
        <time>2017-09-25T09:24:32Z</time>
      </trkpt>
      <trkpt lat="43.33501" lon="2.66087">
        <ele>172.41</ele>
        <time>2017-09-25T09:24:49Z</time>
      </trkpt>
      <trkpt lat="43.3349" lon="2.66103">
        <ele>173.9</ele>
        <time>2017-09-25T09:25:04Z</time>
      </trkpt>
      <trkpt lat="43.33481" lon="2.66122">
        <ele>175.47</ele>
        <time>2017-09-25T09:25:20Z</time>
      </trkpt>
      <trkpt lat="43.33476" lon="2.66139">
        <ele>176.54</ele>
        <time>2017-09-25T09:25:34Z</time>
      </trkpt>
      <trkpt lat="43.33473" lon="2.66147">
        <ele>177</ele>
        <time>2017-09-25T09:25:41Z</time>
      </trkpt>
      <trkpt lat="43.33465" lon="2.66167">
        <ele>178.19</ele>
        <time>2017-09-25T09:25:57Z</time>
      </trkpt>
      <trkpt lat="43.33455" lon="2.66187">
        <ele>179.27</ele>
        <time>2017-09-25T09:26:13Z</time>
      </trkpt>
      <trkpt lat="43.33454" lon="2.6619">
        <ele>179.4</ele>
        <time>2017-09-25T09:26:15Z</time>
      </trkpt>
      <trkpt lat="43.33449" lon="2.66199">
        <ele>179.73</ele>
        <time>2017-09-25T09:26:22Z</time>
      </trkpt>
      <trkpt lat="43.33436" lon="2.66217">
        <ele>180.57</ele>
        <time>2017-09-25T09:26:38Z</time>
      </trkpt>
      <trkpt lat="43.33422" lon="2.66236">
        <ele>181.29</ele>
        <time>2017-09-25T09:26:56Z</time>
      </trkpt>
      <trkpt lat="43.33408" lon="2.66253">
        <ele>181.51</ele>
        <time>2017-09-25T09:27:13Z</time>
      </trkpt>
      <trkpt lat="43.33394" lon="2.66272">
        <ele>182.26</ele>
        <time>2017-09-25T09:27:30Z</time>
      </trkpt>
      <trkpt lat="43.33378" lon="2.66289">
        <ele>182.34</ele>
        <time>2017-09-25T09:27:48Z</time>
      </trkpt>
      <trkpt lat="43.33366" lon="2.66298">
        <ele>182.35</ele>
        <time>2017-09-25T09:28:00Z</time>
      </trkpt>
      <trkpt lat="43.33351" lon="2.66307">
        <ele>181.99</ele>
        <time>2017-09-25T09:28:15Z</time>
      </trkpt>
      <trkpt lat="43.3335" lon="2.66308">
        <ele>181.99</ele>
        <time>2017-09-25T09:28:16Z</time>
      </trkpt>
      <trkpt lat="43.33345" lon="2.66311">
        <ele>182.15</ele>
        <time>2017-09-25T09:28:20Z</time>
      </trkpt>
      <trkpt lat="43.33336" lon="2.66319">
        <ele>182.18</ele>
        <time>2017-09-25T09:28:30Z</time>
      </trkpt>
      <trkpt lat="43.33334" lon="2.6632">
        <ele>182.18</ele>
        <time>2017-09-25T09:28:32Z</time>
      </trkpt>
      <trkpt lat="43.33313" lon="2.66326">
        <ele>183.19</ele>
        <time>2017-09-25T09:28:51Z</time>
      </trkpt>
      <trkpt lat="43.33296" lon="2.66323">
        <ele>183.89</ele>
        <time>2017-09-25T09:29:07Z</time>
      </trkpt>
      <trkpt lat="43.33282" lon="2.6631">
        <ele>183.47</ele>
        <time>2017-09-25T09:29:23Z</time>
      </trkpt>
      <trkpt lat="43.3327" lon="2.66292">
        <ele>183.21</ele>
        <time>2017-09-25T09:29:40Z</time>
      </trkpt>
      <trkpt lat="43.33264" lon="2.66272">
        <ele>183.18</ele>
        <time>2017-09-25T09:29:55Z</time>
      </trkpt>
      <trkpt lat="43.33261" lon="2.66252">
        <ele>183.04</ele>
        <time>2017-09-25T09:30:10Z</time>
      </trkpt>
      <trkpt lat="43.33257" lon="2.66227">
        <ele>183.42</ele>
        <time>2017-09-25T09:30:28Z</time>
      </trkpt>
      <trkpt lat="43.33256" lon="2.66214">
        <ele>183.63</ele>
        <time>2017-09-25T09:30:38Z</time>
      </trkpt>
      <trkpt lat="43.33249" lon="2.66203">
        <ele>183.21</ele>
        <time>2017-09-25T09:30:49Z</time>
      </trkpt>
      <trkpt lat="43.33249" lon="2.66195">
        <ele>183.11</ele>
        <time>2017-09-25T09:31:06Z</time>
      </trkpt>
      <trkpt lat="43.33251" lon="2.66185">
        <ele>192.59</ele>
        <time>2017-09-25T09:31:17Z</time>
      </trkpt>
      <trkpt lat="43.3327" lon="2.66167">
        <ele>185.19</ele>
        <time>2017-09-25T09:31:38Z</time>
      </trkpt>
      <trkpt lat="43.33246" lon="2.66162">
        <ele>184.33</ele>
        <time>2017-09-25T09:31:39Z</time>
      </trkpt>
      <trkpt lat="43.3325" lon="2.66176">
        <ele>183.98</ele>
        <time>2017-09-25T09:31:56Z</time>
      </trkpt>
      <trkpt lat="43.33251" lon="2.66175">
        <ele>183.91</ele>
        <time>2017-09-25T09:32:06Z</time>
      </trkpt>
    </trkseg>
  </trk>
</gpx>